<?xml version="1.0" encoding="UTF-8" standalone="no" ?>
<gpx xmlns="http://www.topografix.com/GPX/1/1" xmlns:xsi="http://www.w3.org/2001/XMLSchema-instance" xsi:schemaLocation="http://www.topografix.com/GPX/1/1 http://www.topografix.com/GPX/1/1/gpx.xsd" version="1.1" creator="VisuGPX - https://www.visugpx.com">
  <metadata>
    <name>Tracé actuel: 03 OCT 2019 12:46</name>
    <desc><![CDATA[encore vu des gens aux champignons de prés ]]></desc>
  </metadata>
  <trk>
    <name><![CDATA[Tracé actuel: 03 OCT 2019 12:46]]></name>
    <trkseg>
      <trkpt lat="49.63444" lon="4.98045">
        <ele>214.51</ele>
        <time>2019-10-03T10:46:35Z</time>
      </trkpt>
      <trkpt lat="49.63446" lon="4.98039">
        <ele>214.51</ele>
        <time>2019-10-03T10:47:02Z</time>
      </trkpt>
      <trkpt lat="49.63451" lon="4.98035">
        <ele>213.55</ele>
        <time>2019-10-03T10:47:24Z</time>
      </trkpt>
      <trkpt lat="49.63449" lon="4.98039">
        <ele>212.59</ele>
        <time>2019-10-03T10:47:44Z</time>
      </trkpt>
      <trkpt lat="49.63443" lon="4.98045">
        <ele>208.26</ele>
        <time>2019-10-03T10:48:02Z</time>
      </trkpt>
      <trkpt lat="49.63431" lon="4.98037">
        <ele>204.9</ele>
        <time>2019-10-03T10:48:20Z</time>
      </trkpt>
      <trkpt lat="49.6342" lon="4.98025">
        <ele>202.01</ele>
        <time>2019-10-03T10:48:38Z</time>
      </trkpt>
      <trkpt lat="49.6341" lon="4.98007">
        <ele>198.17</ele>
        <time>2019-10-03T10:48:54Z</time>
      </trkpt>
      <trkpt lat="49.63399" lon="4.97988">
        <ele>196.73</ele>
        <time>2019-10-03T10:49:11Z</time>
      </trkpt>
      <trkpt lat="49.63389" lon="4.97967">
        <ele>196.73</ele>
        <time>2019-10-03T10:49:30Z</time>
      </trkpt>
      <trkpt lat="49.63388" lon="4.9795">
        <ele>194.32</ele>
        <time>2019-10-03T10:49:43Z</time>
      </trkpt>
      <trkpt lat="49.63393" lon="4.97944">
        <ele>189.04</ele>
        <time>2019-10-03T10:49:56Z</time>
      </trkpt>
      <trkpt lat="49.63405" lon="4.97928">
        <ele>179.42</ele>
        <time>2019-10-03T10:50:12Z</time>
      </trkpt>
      <trkpt lat="49.6342" lon="4.97914">
        <ele>172.21</ele>
        <time>2019-10-03T10:50:30Z</time>
      </trkpt>
      <trkpt lat="49.6344" lon="4.97902">
        <ele>169.33</ele>
        <time>2019-10-03T10:50:51Z</time>
      </trkpt>
      <trkpt lat="49.63454" lon="4.9789">
        <ele>164.04</ele>
        <time>2019-10-03T10:51:09Z</time>
      </trkpt>
      <trkpt lat="49.63466" lon="4.97872">
        <ele>160.2</ele>
        <time>2019-10-03T10:51:26Z</time>
      </trkpt>
      <trkpt lat="49.63477" lon="4.97853">
        <ele>159.24</ele>
        <time>2019-10-03T10:51:43Z</time>
      </trkpt>
      <trkpt lat="49.6349" lon="4.97836">
        <ele>154.43</ele>
        <time>2019-10-03T10:52:02Z</time>
      </trkpt>
      <trkpt lat="49.63509" lon="4.97813">
        <ele>153.47</ele>
        <time>2019-10-03T10:52:23Z</time>
      </trkpt>
      <trkpt lat="49.63521" lon="4.97801">
        <ele>151.54</ele>
        <time>2019-10-03T10:52:38Z</time>
      </trkpt>
      <trkpt lat="49.63524" lon="4.97798">
        <ele>152.03</ele>
        <time>2019-10-03T10:52:41Z</time>
      </trkpt>
      <trkpt lat="49.63539" lon="4.97775">
        <ele>151.06</ele>
        <time>2019-10-03T10:53:01Z</time>
      </trkpt>
      <trkpt lat="49.6355" lon="4.97752">
        <ele>151.06</ele>
        <time>2019-10-03T10:53:17Z</time>
      </trkpt>
      <trkpt lat="49.63556" lon="4.97729">
        <ele>152.51</ele>
        <time>2019-10-03T10:53:33Z</time>
      </trkpt>
      <trkpt lat="49.63567" lon="4.97712">
        <ele>152.99</ele>
        <time>2019-10-03T10:53:50Z</time>
      </trkpt>
      <trkpt lat="49.63579" lon="4.97694">
        <ele>151.06</ele>
        <time>2019-10-03T10:54:08Z</time>
      </trkpt>
      <trkpt lat="49.63586" lon="4.97684">
        <ele>149.14</ele>
        <time>2019-10-03T10:54:18Z</time>
      </trkpt>
      <trkpt lat="49.63588" lon="4.97674">
        <ele>149.14</ele>
        <time>2019-10-03T10:54:24Z</time>
      </trkpt>
      <trkpt lat="49.63595" lon="4.97653">
        <ele>152.03</ele>
        <time>2019-10-03T10:54:42Z</time>
      </trkpt>
      <trkpt lat="49.63584" lon="4.97636">
        <ele>158.75</ele>
        <time>2019-10-03T10:55:00Z</time>
      </trkpt>
      <trkpt lat="49.63571" lon="4.97618">
        <ele>165.48</ele>
        <time>2019-10-03T10:55:18Z</time>
      </trkpt>
      <trkpt lat="49.6356" lon="4.97595">
        <ele>169.33</ele>
        <time>2019-10-03T10:55:35Z</time>
      </trkpt>
      <trkpt lat="49.63556" lon="4.97587">
        <ele>169.81</ele>
        <time>2019-10-03T10:55:41Z</time>
      </trkpt>
      <trkpt lat="49.63545" lon="4.97567">
        <ele>171.73</ele>
        <time>2019-10-03T10:55:58Z</time>
      </trkpt>
      <trkpt lat="49.63533" lon="4.97543">
        <ele>171.25</ele>
        <time>2019-10-03T10:56:16Z</time>
      </trkpt>
      <trkpt lat="49.63521" lon="4.97526">
        <ele>168.37</ele>
        <time>2019-10-03T10:56:30Z</time>
      </trkpt>
      <trkpt lat="49.63512" lon="4.97511">
        <ele>168.37</ele>
        <time>2019-10-03T10:56:44Z</time>
      </trkpt>
      <trkpt lat="49.63501" lon="4.97491">
        <ele>169.33</ele>
        <time>2019-10-03T10:57:01Z</time>
      </trkpt>
      <trkpt lat="49.63488" lon="4.9747">
        <ele>170.29</ele>
        <time>2019-10-03T10:57:19Z</time>
      </trkpt>
      <trkpt lat="49.63476" lon="4.97449">
        <ele>173.17</ele>
        <time>2019-10-03T10:57:38Z</time>
      </trkpt>
      <trkpt lat="49.63465" lon="4.97433">
        <ele>177.02</ele>
        <time>2019-10-03T10:57:56Z</time>
      </trkpt>
      <trkpt lat="49.63454" lon="4.97418">
        <ele>177.02</ele>
        <time>2019-10-03T10:58:12Z</time>
      </trkpt>
      <trkpt lat="49.63445" lon="4.974">
        <ele>179.42</ele>
        <time>2019-10-03T10:58:27Z</time>
      </trkpt>
      <trkpt lat="49.63433" lon="4.97384">
        <ele>182.31</ele>
        <time>2019-10-03T10:58:44Z</time>
      </trkpt>
      <trkpt lat="49.63423" lon="4.9737">
        <ele>183.27</ele>
        <time>2019-10-03T10:59:02Z</time>
      </trkpt>
      <trkpt lat="49.63409" lon="4.97344">
        <ele>187.11</ele>
        <time>2019-10-03T10:59:21Z</time>
      </trkpt>
      <trkpt lat="49.63402" lon="4.97331">
        <ele>186.63</ele>
        <time>2019-10-03T10:59:39Z</time>
      </trkpt>
      <trkpt lat="49.63394" lon="4.97318">
        <ele>186.63</ele>
        <time>2019-10-03T10:59:55Z</time>
      </trkpt>
      <trkpt lat="49.63377" lon="4.97292">
        <ele>190.48</ele>
        <time>2019-10-03T11:00:10Z</time>
      </trkpt>
      <trkpt lat="49.63361" lon="4.97264">
        <ele>194.8</ele>
        <time>2019-10-03T11:00:26Z</time>
      </trkpt>
      <trkpt lat="49.63349" lon="4.97236">
        <ele>197.69</ele>
        <time>2019-10-03T11:00:44Z</time>
      </trkpt>
      <trkpt lat="49.63347" lon="4.97216">
        <ele>195.28</ele>
        <time>2019-10-03T11:01:02Z</time>
      </trkpt>
      <trkpt lat="49.63342" lon="4.97204">
        <ele>193.84</ele>
        <time>2019-10-03T11:01:17Z</time>
      </trkpt>
      <trkpt lat="49.63338" lon="4.97192">
        <ele>190.48</ele>
        <time>2019-10-03T11:01:33Z</time>
      </trkpt>
      <trkpt lat="49.63333" lon="4.97173">
        <ele>189.04</ele>
        <time>2019-10-03T11:01:49Z</time>
      </trkpt>
      <trkpt lat="49.6333" lon="4.97158">
        <ele>187.59</ele>
        <time>2019-10-03T11:02:03Z</time>
      </trkpt>
      <trkpt lat="49.63327" lon="4.97142">
        <ele>186.63</ele>
        <time>2019-10-03T11:02:20Z</time>
      </trkpt>
      <trkpt lat="49.63324" lon="4.97125">
        <ele>186.15</ele>
        <time>2019-10-03T11:02:38Z</time>
      </trkpt>
      <trkpt lat="49.63319" lon="4.97108">
        <ele>185.67</ele>
        <time>2019-10-03T11:02:53Z</time>
      </trkpt>
      <trkpt lat="49.63317" lon="4.97099">
        <ele>186.63</ele>
        <time>2019-10-03T11:02:57Z</time>
      </trkpt>
      <trkpt lat="49.63309" lon="4.97061">
        <ele>192.4</ele>
        <time>2019-10-03T11:03:12Z</time>
      </trkpt>
      <trkpt lat="49.63302" lon="4.9703">
        <ele>191.92</ele>
        <time>2019-10-03T11:03:26Z</time>
      </trkpt>
      <trkpt lat="49.63296" lon="4.97009">
        <ele>190</ele>
        <time>2019-10-03T11:03:43Z</time>
      </trkpt>
      <trkpt lat="49.63292" lon="4.96988">
        <ele>186.63</ele>
        <time>2019-10-03T11:04:02Z</time>
      </trkpt>
      <trkpt lat="49.63289" lon="4.96968">
        <ele>183.75</ele>
        <time>2019-10-03T11:04:17Z</time>
      </trkpt>
      <trkpt lat="49.6328" lon="4.96941">
        <ele>182.31</ele>
        <time>2019-10-03T11:04:31Z</time>
      </trkpt>
      <trkpt lat="49.63269" lon="4.96913">
        <ele>183.75</ele>
        <time>2019-10-03T11:04:49Z</time>
      </trkpt>
      <trkpt lat="49.6325" lon="4.96868">
        <ele>182.31</ele>
        <time>2019-10-03T11:05:07Z</time>
      </trkpt>
      <trkpt lat="49.63242" lon="4.9685">
        <ele>181.35</ele>
        <time>2019-10-03T11:05:21Z</time>
      </trkpt>
      <trkpt lat="49.63227" lon="4.96825">
        <ele>181.35</ele>
        <time>2019-10-03T11:05:38Z</time>
      </trkpt>
      <trkpt lat="49.63212" lon="4.96803">
        <ele>182.31</ele>
        <time>2019-10-03T11:05:53Z</time>
      </trkpt>
      <trkpt lat="49.63197" lon="4.9678">
        <ele>182.31</ele>
        <time>2019-10-03T11:06:09Z</time>
      </trkpt>
      <trkpt lat="49.63181" lon="4.96761">
        <ele>180.87</ele>
        <time>2019-10-03T11:06:25Z</time>
      </trkpt>
      <trkpt lat="49.6317" lon="4.96747">
        <ele>179.9</ele>
        <time>2019-10-03T11:06:42Z</time>
      </trkpt>
      <trkpt lat="49.6316" lon="4.9674">
        <ele>179.42</ele>
        <time>2019-10-03T11:06:58Z</time>
      </trkpt>
      <trkpt lat="49.63143" lon="4.96725">
        <ele>179.42</ele>
        <time>2019-10-03T11:07:15Z</time>
      </trkpt>
      <trkpt lat="49.63124" lon="4.96706">
        <ele>178.94</ele>
        <time>2019-10-03T11:07:33Z</time>
      </trkpt>
      <trkpt lat="49.63108" lon="4.96689">
        <ele>179.42</ele>
        <time>2019-10-03T11:07:51Z</time>
      </trkpt>
      <trkpt lat="49.63094" lon="4.96677">
        <ele>180.38</ele>
        <time>2019-10-03T11:08:08Z</time>
      </trkpt>
      <trkpt lat="49.63086" lon="4.96671">
        <ele>179.9</ele>
        <time>2019-10-03T11:08:23Z</time>
      </trkpt>
      <trkpt lat="49.63073" lon="4.96659">
        <ele>181.83</ele>
        <time>2019-10-03T11:08:37Z</time>
      </trkpt>
      <trkpt lat="49.63059" lon="4.96643">
        <ele>181.35</ele>
        <time>2019-10-03T11:08:52Z</time>
      </trkpt>
      <trkpt lat="49.63046" lon="4.96635">
        <ele>179.9</ele>
        <time>2019-10-03T11:09:08Z</time>
      </trkpt>
      <trkpt lat="49.63032" lon="4.96622">
        <ele>179.9</ele>
        <time>2019-10-03T11:09:22Z</time>
      </trkpt>
      <trkpt lat="49.6302" lon="4.96609">
        <ele>181.35</ele>
        <time>2019-10-03T11:09:36Z</time>
      </trkpt>
      <trkpt lat="49.63005" lon="4.96597">
        <ele>179.9</ele>
        <time>2019-10-03T11:09:51Z</time>
      </trkpt>
      <trkpt lat="49.6299" lon="4.96585">
        <ele>177.5</ele>
        <time>2019-10-03T11:10:07Z</time>
      </trkpt>
      <trkpt lat="49.62977" lon="4.96576">
        <ele>175.1</ele>
        <time>2019-10-03T11:10:23Z</time>
      </trkpt>
      <trkpt lat="49.62962" lon="4.96561">
        <ele>173.17</ele>
        <time>2019-10-03T11:10:40Z</time>
      </trkpt>
      <trkpt lat="49.62955" lon="4.96554">
        <ele>171.73</ele>
        <time>2019-10-03T11:10:57Z</time>
      </trkpt>
      <trkpt lat="49.6294" lon="4.96546">
        <ele>165.96</ele>
        <time>2019-10-03T11:11:15Z</time>
      </trkpt>
      <trkpt lat="49.62927" lon="4.96538">
        <ele>165.48</ele>
        <time>2019-10-03T11:11:29Z</time>
      </trkpt>
      <trkpt lat="49.62926" lon="4.96505">
        <ele>167.41</ele>
        <time>2019-10-03T11:11:47Z</time>
      </trkpt>
      <trkpt lat="49.62927" lon="4.96477">
        <ele>166.93</ele>
        <time>2019-10-03T11:12:05Z</time>
      </trkpt>
      <trkpt lat="49.62921" lon="4.96451">
        <ele>171.73</ele>
        <time>2019-10-03T11:12:21Z</time>
      </trkpt>
      <trkpt lat="49.62913" lon="4.96443">
        <ele>172.69</ele>
        <time>2019-10-03T11:12:38Z</time>
      </trkpt>
      <trkpt lat="49.62907" lon="4.96431">
        <ele>171.73</ele>
        <time>2019-10-03T11:12:52Z</time>
      </trkpt>
      <trkpt lat="49.62887" lon="4.96412">
        <ele>175.58</ele>
        <time>2019-10-03T11:13:09Z</time>
      </trkpt>
      <trkpt lat="49.62882" lon="4.96405">
        <ele>176.54</ele>
        <time>2019-10-03T11:13:15Z</time>
      </trkpt>
      <trkpt lat="49.6288" lon="4.96402">
        <ele>176.54</ele>
        <time>2019-10-03T11:13:17Z</time>
      </trkpt>
      <trkpt lat="49.6286" lon="4.96383">
        <ele>177.98</ele>
        <time>2019-10-03T11:13:33Z</time>
      </trkpt>
      <trkpt lat="49.62847" lon="4.96359">
        <ele>180.38</ele>
        <time>2019-10-03T11:13:50Z</time>
      </trkpt>
      <trkpt lat="49.62832" lon="4.96341">
        <ele>181.83</ele>
        <time>2019-10-03T11:14:07Z</time>
      </trkpt>
      <trkpt lat="49.6283" lon="4.96337">
        <ele>181.83</ele>
        <time>2019-10-03T11:14:10Z</time>
      </trkpt>
      <trkpt lat="49.62825" lon="4.96321">
        <ele>180.87</ele>
        <time>2019-10-03T11:14:19Z</time>
      </trkpt>
      <trkpt lat="49.6282" lon="4.96305">
        <ele>178.94</ele>
        <time>2019-10-03T11:14:29Z</time>
      </trkpt>
      <trkpt lat="49.62801" lon="4.96294">
        <ele>176.54</ele>
        <time>2019-10-03T11:14:48Z</time>
      </trkpt>
      <trkpt lat="49.62795" lon="4.96289">
        <ele>175.58</ele>
        <time>2019-10-03T11:14:55Z</time>
      </trkpt>
      <trkpt lat="49.62781" lon="4.96273">
        <ele>169.81</ele>
        <time>2019-10-03T11:15:12Z</time>
      </trkpt>
      <trkpt lat="49.62763" lon="4.96259">
        <ele>169.81</ele>
        <time>2019-10-03T11:15:31Z</time>
      </trkpt>
      <trkpt lat="49.62741" lon="4.96238">
        <ele>172.21</ele>
        <time>2019-10-03T11:15:52Z</time>
      </trkpt>
      <trkpt lat="49.62721" lon="4.96227">
        <ele>171.73</ele>
        <time>2019-10-03T11:16:12Z</time>
      </trkpt>
      <trkpt lat="49.62701" lon="4.96216">
        <ele>171.25</ele>
        <time>2019-10-03T11:16:32Z</time>
      </trkpt>
      <trkpt lat="49.62697" lon="4.96213">
        <ele>170.77</ele>
        <time>2019-10-03T11:16:37Z</time>
      </trkpt>
      <trkpt lat="49.62685" lon="4.96192">
        <ele>169.33</ele>
        <time>2019-10-03T11:16:55Z</time>
      </trkpt>
      <trkpt lat="49.62671" lon="4.96169">
        <ele>171.73</ele>
        <time>2019-10-03T11:17:14Z</time>
      </trkpt>
      <trkpt lat="49.62662" lon="4.96157">
        <ele>171.25</ele>
        <time>2019-10-03T11:17:26Z</time>
      </trkpt>
      <trkpt lat="49.62651" lon="4.96143">
        <ele>173.17</ele>
        <time>2019-10-03T11:17:41Z</time>
      </trkpt>
      <trkpt lat="49.62643" lon="4.96132">
        <ele>175.1</ele>
        <time>2019-10-03T11:17:54Z</time>
      </trkpt>
      <trkpt lat="49.62635" lon="4.96121">
        <ele>178.94</ele>
        <time>2019-10-03T11:18:07Z</time>
      </trkpt>
      <trkpt lat="49.62624" lon="4.96108">
        <ele>182.79</ele>
        <time>2019-10-03T11:18:21Z</time>
      </trkpt>
      <trkpt lat="49.6261" lon="4.96098">
        <ele>185.19</ele>
        <time>2019-10-03T11:18:35Z</time>
      </trkpt>
      <trkpt lat="49.62588" lon="4.96095">
        <ele>190</ele>
        <time>2019-10-03T11:18:53Z</time>
      </trkpt>
      <trkpt lat="49.62584" lon="4.96095">
        <ele>190.96</ele>
        <time>2019-10-03T11:18:57Z</time>
      </trkpt>
      <trkpt lat="49.62577" lon="4.96095">
        <ele>190.96</ele>
        <time>2019-10-03T11:19:13Z</time>
      </trkpt>
      <trkpt lat="49.62576" lon="4.96097">
        <ele>190.48</ele>
        <time>2019-10-03T11:19:33Z</time>
      </trkpt>
      <trkpt lat="49.62576" lon="4.96098">
        <ele>190.96</ele>
        <time>2019-10-03T11:19:55Z</time>
      </trkpt>
      <trkpt lat="49.62576" lon="4.96099">
        <ele>190.48</ele>
        <time>2019-10-03T11:20:19Z</time>
      </trkpt>
      <trkpt lat="49.62576" lon="4.96099">
        <ele>190</ele>
        <time>2019-10-03T11:20:43Z</time>
      </trkpt>
      <trkpt lat="49.62576" lon="4.96099">
        <ele>189.52</ele>
        <time>2019-10-03T11:21:14Z</time>
      </trkpt>
      <trkpt lat="49.62571" lon="4.96101">
        <ele>189.04</ele>
        <time>2019-10-03T11:21:35Z</time>
      </trkpt>
      <trkpt lat="49.62556" lon="4.96106">
        <ele>182.31</ele>
        <time>2019-10-03T11:21:54Z</time>
      </trkpt>
      <trkpt lat="49.62548" lon="4.96107">
        <ele>179.42</ele>
        <time>2019-10-03T11:22:07Z</time>
      </trkpt>
      <trkpt lat="49.62533" lon="4.96109">
        <ele>176.54</ele>
        <time>2019-10-03T11:22:19Z</time>
      </trkpt>
      <trkpt lat="49.62532" lon="4.96109">
        <ele>176.06</ele>
        <time>2019-10-03T11:22:20Z</time>
      </trkpt>
      <trkpt lat="49.62513" lon="4.96108">
        <ele>171.73</ele>
        <time>2019-10-03T11:22:38Z</time>
      </trkpt>
      <trkpt lat="49.62501" lon="4.96108">
        <ele>172.21</ele>
        <time>2019-10-03T11:22:48Z</time>
      </trkpt>
      <trkpt lat="49.62481" lon="4.96102">
        <ele>173.66</ele>
        <time>2019-10-03T11:23:05Z</time>
      </trkpt>
      <trkpt lat="49.62466" lon="4.96093">
        <ele>171.73</ele>
        <time>2019-10-03T11:23:21Z</time>
      </trkpt>
      <trkpt lat="49.62448" lon="4.9609">
        <ele>174.14</ele>
        <time>2019-10-03T11:23:35Z</time>
      </trkpt>
      <trkpt lat="49.62431" lon="4.96075">
        <ele>174.62</ele>
        <time>2019-10-03T11:23:51Z</time>
      </trkpt>
      <trkpt lat="49.62415" lon="4.96067">
        <ele>173.17</ele>
        <time>2019-10-03T11:24:07Z</time>
      </trkpt>
      <trkpt lat="49.62402" lon="4.96052">
        <ele>172.21</ele>
        <time>2019-10-03T11:24:22Z</time>
      </trkpt>
      <trkpt lat="49.62388" lon="4.96027">
        <ele>177.02</ele>
        <time>2019-10-03T11:24:41Z</time>
      </trkpt>
      <trkpt lat="49.6238" lon="4.96001">
        <ele>177.98</ele>
        <time>2019-10-03T11:24:57Z</time>
      </trkpt>
      <trkpt lat="49.62372" lon="4.95969">
        <ele>178.94</ele>
        <time>2019-10-03T11:25:16Z</time>
      </trkpt>
      <trkpt lat="49.62369" lon="4.95958">
        <ele>178.94</ele>
        <time>2019-10-03T11:25:24Z</time>
      </trkpt>
      <trkpt lat="49.62362" lon="4.95923">
        <ele>177.98</ele>
        <time>2019-10-03T11:25:46Z</time>
      </trkpt>
      <trkpt lat="49.62354" lon="4.95901">
        <ele>174.62</ele>
        <time>2019-10-03T11:26:03Z</time>
      </trkpt>
      <trkpt lat="49.62345" lon="4.95884">
        <ele>174.14</ele>
        <time>2019-10-03T11:26:18Z</time>
      </trkpt>
      <trkpt lat="49.62342" lon="4.95881">
        <ele>175.1</ele>
        <time>2019-10-03T11:26:22Z</time>
      </trkpt>
      <trkpt lat="49.62322" lon="4.95886">
        <ele>173.66</ele>
        <time>2019-10-03T11:26:41Z</time>
      </trkpt>
      <trkpt lat="49.62302" lon="4.95893">
        <ele>172.21</ele>
        <time>2019-10-03T11:27:00Z</time>
      </trkpt>
      <trkpt lat="49.62289" lon="4.95883">
        <ele>168.85</ele>
        <time>2019-10-03T11:27:16Z</time>
      </trkpt>
      <trkpt lat="49.62285" lon="4.95876">
        <ele>167.89</ele>
        <time>2019-10-03T11:27:25Z</time>
      </trkpt>
      <trkpt lat="49.62276" lon="4.95848">
        <ele>171.73</ele>
        <time>2019-10-03T11:27:43Z</time>
      </trkpt>
      <trkpt lat="49.62272" lon="4.95823">
        <ele>171.25</ele>
        <time>2019-10-03T11:27:59Z</time>
      </trkpt>
      <trkpt lat="49.62269" lon="4.958">
        <ele>172.69</ele>
        <time>2019-10-03T11:28:14Z</time>
      </trkpt>
      <trkpt lat="49.62268" lon="4.9577">
        <ele>171.73</ele>
        <time>2019-10-03T11:28:32Z</time>
      </trkpt>
      <trkpt lat="49.62268" lon="4.95756">
        <ele>171.73</ele>
        <time>2019-10-03T11:28:41Z</time>
      </trkpt>
      <trkpt lat="49.62268" lon="4.95745">
        <ele>172.21</ele>
        <time>2019-10-03T11:28:47Z</time>
      </trkpt>
      <trkpt lat="49.62269" lon="4.95734">
        <ele>172.69</ele>
        <time>2019-10-03T11:28:53Z</time>
      </trkpt>
      <trkpt lat="49.62267" lon="4.9571">
        <ele>175.1</ele>
        <time>2019-10-03T11:29:09Z</time>
      </trkpt>
      <trkpt lat="49.62262" lon="4.95694">
        <ele>175.1</ele>
        <time>2019-10-03T11:29:23Z</time>
      </trkpt>
      <trkpt lat="49.62258" lon="4.95671">
        <ele>176.06</ele>
        <time>2019-10-03T11:29:36Z</time>
      </trkpt>
      <trkpt lat="49.62256" lon="4.95652">
        <ele>176.54</ele>
        <time>2019-10-03T11:29:52Z</time>
      </trkpt>
      <trkpt lat="49.62254" lon="4.9564">
        <ele>175.58</ele>
        <time>2019-10-03T11:30:10Z</time>
      </trkpt>
      <trkpt lat="49.62252" lon="4.95628">
        <ele>174.14</ele>
        <time>2019-10-03T11:30:25Z</time>
      </trkpt>
      <trkpt lat="49.62248" lon="4.95609">
        <ele>172.21</ele>
        <time>2019-10-03T11:30:41Z</time>
      </trkpt>
      <trkpt lat="49.6224" lon="4.95579">
        <ele>171.25</ele>
        <time>2019-10-03T11:30:55Z</time>
      </trkpt>
      <trkpt lat="49.62234" lon="4.95556">
        <ele>172.21</ele>
        <time>2019-10-03T11:31:11Z</time>
      </trkpt>
      <trkpt lat="49.6223" lon="4.95537">
        <ele>172.69</ele>
        <time>2019-10-03T11:31:29Z</time>
      </trkpt>
      <trkpt lat="49.62228" lon="4.95535">
        <ele>171.73</ele>
        <time>2019-10-03T11:31:45Z</time>
      </trkpt>
      <trkpt lat="49.62226" lon="4.95536">
        <ele>170.29</ele>
        <time>2019-10-03T11:32:02Z</time>
      </trkpt>
      <trkpt lat="49.62224" lon="4.95539">
        <ele>167.89</ele>
        <time>2019-10-03T11:32:19Z</time>
      </trkpt>
      <trkpt lat="49.62219" lon="4.95549">
        <ele>162.12</ele>
        <time>2019-10-03T11:32:37Z</time>
      </trkpt>
      <trkpt lat="49.62211" lon="4.95573">
        <ele>157.31</ele>
        <time>2019-10-03T11:32:53Z</time>
      </trkpt>
      <trkpt lat="49.62209" lon="4.95605">
        <ele>155.39</ele>
        <time>2019-10-03T11:33:09Z</time>
      </trkpt>
      <trkpt lat="49.62206" lon="4.95635">
        <ele>155.87</ele>
        <time>2019-10-03T11:33:23Z</time>
      </trkpt>
      <trkpt lat="49.62203" lon="4.95653">
        <ele>156.83</ele>
        <time>2019-10-03T11:33:31Z</time>
      </trkpt>
      <trkpt lat="49.622" lon="4.95676">
        <ele>157.79</ele>
        <time>2019-10-03T11:33:43Z</time>
      </trkpt>
      <trkpt lat="49.62197" lon="4.9569">
        <ele>158.27</ele>
        <time>2019-10-03T11:33:49Z</time>
      </trkpt>
      <trkpt lat="49.62189" lon="4.95726">
        <ele>159.24</ele>
        <time>2019-10-03T11:34:04Z</time>
      </trkpt>
      <trkpt lat="49.62186" lon="4.95762">
        <ele>163.56</ele>
        <time>2019-10-03T11:34:20Z</time>
      </trkpt>
      <trkpt lat="49.62179" lon="4.95795">
        <ele>166.93</ele>
        <time>2019-10-03T11:34:38Z</time>
      </trkpt>
      <trkpt lat="49.62166" lon="4.95811">
        <ele>168.37</ele>
        <time>2019-10-03T11:34:56Z</time>
      </trkpt>
      <trkpt lat="49.62155" lon="4.95834">
        <ele>169.81</ele>
        <time>2019-10-03T11:35:11Z</time>
      </trkpt>
      <trkpt lat="49.62144" lon="4.95851">
        <ele>171.25</ele>
        <time>2019-10-03T11:35:25Z</time>
      </trkpt>
      <trkpt lat="49.62142" lon="4.95854">
        <ele>171.73</ele>
        <time>2019-10-03T11:35:28Z</time>
      </trkpt>
      <trkpt lat="49.62126" lon="4.95866">
        <ele>172.69</ele>
        <time>2019-10-03T11:35:45Z</time>
      </trkpt>
      <trkpt lat="49.62114" lon="4.95882">
        <ele>178.46</ele>
        <time>2019-10-03T11:36:00Z</time>
      </trkpt>
      <trkpt lat="49.62102" lon="4.95892">
        <ele>180.38</ele>
        <time>2019-10-03T11:36:16Z</time>
      </trkpt>
      <trkpt lat="49.62087" lon="4.95901">
        <ele>181.83</ele>
        <time>2019-10-03T11:36:33Z</time>
      </trkpt>
      <trkpt lat="49.62074" lon="4.9591">
        <ele>183.27</ele>
        <time>2019-10-03T11:36:49Z</time>
      </trkpt>
      <trkpt lat="49.62061" lon="4.95921">
        <ele>184.23</ele>
        <time>2019-10-03T11:37:03Z</time>
      </trkpt>
      <trkpt lat="49.62049" lon="4.95928">
        <ele>181.35</ele>
        <time>2019-10-03T11:37:16Z</time>
      </trkpt>
      <trkpt lat="49.62037" lon="4.95934">
        <ele>179.42</ele>
        <time>2019-10-03T11:37:30Z</time>
      </trkpt>
      <trkpt lat="49.62033" lon="4.95937">
        <ele>178.94</ele>
        <time>2019-10-03T11:37:34Z</time>
      </trkpt>
      <trkpt lat="49.62017" lon="4.95941">
        <ele>178.94</ele>
        <time>2019-10-03T11:37:50Z</time>
      </trkpt>
      <trkpt lat="49.62006" lon="4.95941">
        <ele>179.9</ele>
        <time>2019-10-03T11:38:02Z</time>
      </trkpt>
      <trkpt lat="49.62001" lon="4.9594">
        <ele>179.9</ele>
        <time>2019-10-03T11:38:06Z</time>
      </trkpt>
      <trkpt lat="49.61998" lon="4.95939">
        <ele>180.38</ele>
        <time>2019-10-03T11:38:09Z</time>
      </trkpt>
      <trkpt lat="49.61981" lon="4.95935">
        <ele>183.27</ele>
        <time>2019-10-03T11:38:25Z</time>
      </trkpt>
      <trkpt lat="49.61966" lon="4.95931">
        <ele>185.19</ele>
        <time>2019-10-03T11:38:40Z</time>
      </trkpt>
      <trkpt lat="49.61952" lon="4.95932">
        <ele>186.15</ele>
        <time>2019-10-03T11:38:53Z</time>
      </trkpt>
      <trkpt lat="49.61939" lon="4.9593">
        <ele>185.19</ele>
        <time>2019-10-03T11:39:06Z</time>
      </trkpt>
      <trkpt lat="49.61923" lon="4.95929">
        <ele>184.23</ele>
        <time>2019-10-03T11:39:22Z</time>
      </trkpt>
      <trkpt lat="49.61907" lon="4.95929">
        <ele>184.71</ele>
        <time>2019-10-03T11:39:37Z</time>
      </trkpt>
      <trkpt lat="49.61891" lon="4.95925">
        <ele>183.75</ele>
        <time>2019-10-03T11:39:53Z</time>
      </trkpt>
      <trkpt lat="49.61878" lon="4.95922">
        <ele>183.27</ele>
        <time>2019-10-03T11:40:07Z</time>
      </trkpt>
      <trkpt lat="49.61864" lon="4.95917">
        <ele>183.75</ele>
        <time>2019-10-03T11:40:22Z</time>
      </trkpt>
      <trkpt lat="49.61847" lon="4.95916">
        <ele>186.15</ele>
        <time>2019-10-03T11:40:37Z</time>
      </trkpt>
      <trkpt lat="49.61832" lon="4.95929">
        <ele>190</ele>
        <time>2019-10-03T11:40:51Z</time>
      </trkpt>
      <trkpt lat="49.61819" lon="4.95926">
        <ele>190.96</ele>
        <time>2019-10-03T11:41:05Z</time>
      </trkpt>
      <trkpt lat="49.61805" lon="4.95916">
        <ele>190</ele>
        <time>2019-10-03T11:41:22Z</time>
      </trkpt>
      <trkpt lat="49.61793" lon="4.95905">
        <ele>189.52</ele>
        <time>2019-10-03T11:41:36Z</time>
      </trkpt>
      <trkpt lat="49.61783" lon="4.959">
        <ele>191.44</ele>
        <time>2019-10-03T11:41:46Z</time>
      </trkpt>
      <trkpt lat="49.61766" lon="4.95887">
        <ele>192.88</ele>
        <time>2019-10-03T11:42:03Z</time>
      </trkpt>
      <trkpt lat="49.61753" lon="4.95876">
        <ele>194.32</ele>
        <time>2019-10-03T11:42:18Z</time>
      </trkpt>
      <trkpt lat="49.6174" lon="4.95862">
        <ele>196.73</ele>
        <time>2019-10-03T11:42:34Z</time>
      </trkpt>
      <trkpt lat="49.61739" lon="4.95861">
        <ele>196.73</ele>
        <time>2019-10-03T11:42:35Z</time>
      </trkpt>
      <trkpt lat="49.61722" lon="4.95854">
        <ele>200.09</ele>
        <time>2019-10-03T11:42:51Z</time>
      </trkpt>
      <trkpt lat="49.6171" lon="4.95847">
        <ele>203.46</ele>
        <time>2019-10-03T11:43:06Z</time>
      </trkpt>
      <trkpt lat="49.61698" lon="4.95831">
        <ele>208.26</ele>
        <time>2019-10-03T11:43:22Z</time>
      </trkpt>
      <trkpt lat="49.61693" lon="4.95826">
        <ele>212.11</ele>
        <time>2019-10-03T11:43:36Z</time>
      </trkpt>
      <trkpt lat="49.61688" lon="4.95815">
        <ele>215.47</ele>
        <time>2019-10-03T11:43:57Z</time>
      </trkpt>
      <trkpt lat="49.61677" lon="4.95795">
        <ele>218.36</ele>
        <time>2019-10-03T11:44:13Z</time>
      </trkpt>
      <trkpt lat="49.61665" lon="4.9577">
        <ele>222.68</ele>
        <time>2019-10-03T11:44:31Z</time>
      </trkpt>
      <trkpt lat="49.61653" lon="4.95743">
        <ele>225.09</ele>
        <time>2019-10-03T11:44:50Z</time>
      </trkpt>
      <trkpt lat="49.61643" lon="4.95715">
        <ele>227.01</ele>
        <time>2019-10-03T11:45:08Z</time>
      </trkpt>
      <trkpt lat="49.61635" lon="4.95687">
        <ele>228.93</ele>
        <time>2019-10-03T11:45:27Z</time>
      </trkpt>
      <trkpt lat="49.6163" lon="4.95657">
        <ele>230.85</ele>
        <time>2019-10-03T11:45:46Z</time>
      </trkpt>
      <trkpt lat="49.61628" lon="4.9563">
        <ele>232.3</ele>
        <time>2019-10-03T11:46:03Z</time>
      </trkpt>
      <trkpt lat="49.61629" lon="4.95607">
        <ele>233.26</ele>
        <time>2019-10-03T11:46:18Z</time>
      </trkpt>
      <trkpt lat="49.6163" lon="4.95579">
        <ele>235.18</ele>
        <time>2019-10-03T11:46:36Z</time>
      </trkpt>
      <trkpt lat="49.61633" lon="4.95553">
        <ele>236.62</ele>
        <time>2019-10-03T11:46:52Z</time>
      </trkpt>
      <trkpt lat="49.61634" lon="4.95546">
        <ele>237.1</ele>
        <time>2019-10-03T11:46:57Z</time>
      </trkpt>
      <trkpt lat="49.61635" lon="4.95523">
        <ele>238.54</ele>
        <time>2019-10-03T11:47:11Z</time>
      </trkpt>
      <trkpt lat="49.61635" lon="4.95492">
        <ele>241.43</ele>
        <time>2019-10-03T11:47:29Z</time>
      </trkpt>
      <trkpt lat="49.61636" lon="4.9547">
        <ele>243.35</ele>
        <time>2019-10-03T11:47:43Z</time>
      </trkpt>
      <trkpt lat="49.61635" lon="4.9546">
        <ele>243.83</ele>
        <time>2019-10-03T11:47:58Z</time>
      </trkpt>
      <trkpt lat="49.61634" lon="4.95432">
        <ele>244.31</ele>
        <time>2019-10-03T11:48:16Z</time>
      </trkpt>
      <trkpt lat="49.61634" lon="4.95402">
        <ele>246.23</ele>
        <time>2019-10-03T11:48:33Z</time>
      </trkpt>
      <trkpt lat="49.61633" lon="4.95376">
        <ele>248.64</ele>
        <time>2019-10-03T11:48:50Z</time>
      </trkpt>
      <trkpt lat="49.61631" lon="4.95362">
        <ele>249.6</ele>
        <time>2019-10-03T11:48:58Z</time>
      </trkpt>
      <trkpt lat="49.61626" lon="4.95331">
        <ele>249.6</ele>
        <time>2019-10-03T11:49:18Z</time>
      </trkpt>
      <trkpt lat="49.6162" lon="4.95302">
        <ele>250.56</ele>
        <time>2019-10-03T11:49:36Z</time>
      </trkpt>
      <trkpt lat="49.61613" lon="4.95269">
        <ele>252.96</ele>
        <time>2019-10-03T11:49:56Z</time>
      </trkpt>
      <trkpt lat="49.61606" lon="4.95242">
        <ele>254.41</ele>
        <time>2019-10-03T11:50:13Z</time>
      </trkpt>
      <trkpt lat="49.61598" lon="4.95211">
        <ele>256.33</ele>
        <time>2019-10-03T11:50:33Z</time>
      </trkpt>
      <trkpt lat="49.61591" lon="4.95182">
        <ele>258.25</ele>
        <time>2019-10-03T11:50:51Z</time>
      </trkpt>
      <trkpt lat="49.61585" lon="4.95158">
        <ele>260.65</ele>
        <time>2019-10-03T11:51:09Z</time>
      </trkpt>
      <trkpt lat="49.61583" lon="4.95147">
        <ele>261.14</ele>
        <time>2019-10-03T11:51:21Z</time>
      </trkpt>
      <trkpt lat="49.61584" lon="4.95144">
        <ele>259.21</ele>
        <time>2019-10-03T11:51:39Z</time>
      </trkpt>
      <trkpt lat="49.61581" lon="4.95134">
        <ele>258.73</ele>
        <time>2019-10-03T11:51:59Z</time>
      </trkpt>
      <trkpt lat="49.61571" lon="4.9511">
        <ele>255.37</ele>
        <time>2019-10-03T11:52:17Z</time>
      </trkpt>
      <trkpt lat="49.61562" lon="4.95084">
        <ele>250.56</ele>
        <time>2019-10-03T11:52:34Z</time>
      </trkpt>
      <trkpt lat="49.61549" lon="4.95055">
        <ele>249.12</ele>
        <time>2019-10-03T11:52:53Z</time>
      </trkpt>
      <trkpt lat="49.6154" lon="4.95032">
        <ele>250.08</ele>
        <time>2019-10-03T11:53:10Z</time>
      </trkpt>
      <trkpt lat="49.61528" lon="4.95005">
        <ele>250.08</ele>
        <time>2019-10-03T11:53:29Z</time>
      </trkpt>
      <trkpt lat="49.61513" lon="4.94978">
        <ele>249.6</ele>
        <time>2019-10-03T11:53:47Z</time>
      </trkpt>
      <trkpt lat="49.61503" lon="4.9496">
        <ele>251.52</ele>
        <time>2019-10-03T11:54:01Z</time>
      </trkpt>
      <trkpt lat="49.61489" lon="4.94943">
        <ele>252</ele>
        <time>2019-10-03T11:54:17Z</time>
      </trkpt>
      <trkpt lat="49.61478" lon="4.94929">
        <ele>252</ele>
        <time>2019-10-03T11:54:31Z</time>
      </trkpt>
      <trkpt lat="49.61465" lon="4.94912">
        <ele>251.52</ele>
        <time>2019-10-03T11:54:47Z</time>
      </trkpt>
      <trkpt lat="49.61452" lon="4.94891">
        <ele>253.44</ele>
        <time>2019-10-03T11:55:05Z</time>
      </trkpt>
      <trkpt lat="49.61439" lon="4.94874">
        <ele>252.96</ele>
        <time>2019-10-03T11:55:21Z</time>
      </trkpt>
      <trkpt lat="49.61425" lon="4.94856">
        <ele>252.96</ele>
        <time>2019-10-03T11:55:38Z</time>
      </trkpt>
      <trkpt lat="49.61412" lon="4.94835">
        <ele>252.48</ele>
        <time>2019-10-03T11:55:55Z</time>
      </trkpt>
      <trkpt lat="49.61403" lon="4.94825">
        <ele>251.04</ele>
        <time>2019-10-03T11:56:08Z</time>
      </trkpt>
      <trkpt lat="49.61392" lon="4.94808">
        <ele>251.52</ele>
        <time>2019-10-03T11:56:21Z</time>
      </trkpt>
      <trkpt lat="49.61384" lon="4.94795">
        <ele>253.44</ele>
        <time>2019-10-03T11:56:31Z</time>
      </trkpt>
      <trkpt lat="49.61373" lon="4.94774">
        <ele>257.77</ele>
        <time>2019-10-03T11:56:47Z</time>
      </trkpt>
      <trkpt lat="49.61358" lon="4.94751">
        <ele>257.77</ele>
        <time>2019-10-03T11:57:06Z</time>
      </trkpt>
      <trkpt lat="49.61343" lon="4.94733">
        <ele>259.69</ele>
        <time>2019-10-03T11:57:24Z</time>
      </trkpt>
      <trkpt lat="49.6133" lon="4.94715">
        <ele>260.65</ele>
        <time>2019-10-03T11:57:40Z</time>
      </trkpt>
      <trkpt lat="49.61327" lon="4.94712">
        <ele>261.14</ele>
        <time>2019-10-03T11:57:43Z</time>
      </trkpt>
      <trkpt lat="49.61314" lon="4.94694">
        <ele>265.94</ele>
        <time>2019-10-03T11:58:00Z</time>
      </trkpt>
      <trkpt lat="49.61312" lon="4.94689">
        <ele>266.42</ele>
        <time>2019-10-03T11:58:21Z</time>
      </trkpt>
      <trkpt lat="49.613" lon="4.94672">
        <ele>265.94</ele>
        <time>2019-10-03T11:58:38Z</time>
      </trkpt>
      <trkpt lat="49.61281" lon="4.9465">
        <ele>264.02</ele>
        <time>2019-10-03T11:58:57Z</time>
      </trkpt>
      <trkpt lat="49.61263" lon="4.94626">
        <ele>262.58</ele>
        <time>2019-10-03T11:59:16Z</time>
      </trkpt>
      <trkpt lat="49.61243" lon="4.94607">
        <ele>261.62</ele>
        <time>2019-10-03T11:59:33Z</time>
      </trkpt>
      <trkpt lat="49.61227" lon="4.94587">
        <ele>264.5</ele>
        <time>2019-10-03T11:59:49Z</time>
      </trkpt>
      <trkpt lat="49.61212" lon="4.94571">
        <ele>264.5</ele>
        <time>2019-10-03T12:00:06Z</time>
      </trkpt>
      <trkpt lat="49.61198" lon="4.94549">
        <ele>267.38</ele>
        <time>2019-10-03T12:00:23Z</time>
      </trkpt>
      <trkpt lat="49.61183" lon="4.94528">
        <ele>272.67</ele>
        <time>2019-10-03T12:00:39Z</time>
      </trkpt>
      <trkpt lat="49.61166" lon="4.94505">
        <ele>277.96</ele>
        <time>2019-10-03T12:00:59Z</time>
      </trkpt>
      <trkpt lat="49.61154" lon="4.94487">
        <ele>276.04</ele>
        <time>2019-10-03T12:01:16Z</time>
      </trkpt>
      <trkpt lat="49.61141" lon="4.94472">
        <ele>272.67</ele>
        <time>2019-10-03T12:01:32Z</time>
      </trkpt>
      <trkpt lat="49.61127" lon="4.94456">
        <ele>272.19</ele>
        <time>2019-10-03T12:01:48Z</time>
      </trkpt>
      <trkpt lat="49.61111" lon="4.94438">
        <ele>273.15</ele>
        <time>2019-10-03T12:02:05Z</time>
      </trkpt>
      <trkpt lat="49.61092" lon="4.94414">
        <ele>275.07</ele>
        <time>2019-10-03T12:02:27Z</time>
      </trkpt>
      <trkpt lat="49.61078" lon="4.94397">
        <ele>275.07</ele>
        <time>2019-10-03T12:02:45Z</time>
      </trkpt>
      <trkpt lat="49.61061" lon="4.94379">
        <ele>276.52</ele>
        <time>2019-10-03T12:03:03Z</time>
      </trkpt>
      <trkpt lat="49.61045" lon="4.9436">
        <ele>277</ele>
        <time>2019-10-03T12:03:22Z</time>
      </trkpt>
      <trkpt lat="49.6103" lon="4.94338">
        <ele>276.52</ele>
        <time>2019-10-03T12:03:41Z</time>
      </trkpt>
      <trkpt lat="49.61012" lon="4.94315">
        <ele>278.44</ele>
        <time>2019-10-03T12:04:01Z</time>
      </trkpt>
      <trkpt lat="49.60997" lon="4.94292">
        <ele>280.36</ele>
        <time>2019-10-03T12:04:21Z</time>
      </trkpt>
      <trkpt lat="49.60986" lon="4.94267">
        <ele>281.32</ele>
        <time>2019-10-03T12:04:39Z</time>
      </trkpt>
      <trkpt lat="49.60976" lon="4.94244">
        <ele>280.84</ele>
        <time>2019-10-03T12:04:56Z</time>
      </trkpt>
      <trkpt lat="49.60964" lon="4.94215">
        <ele>281.32</ele>
        <time>2019-10-03T12:05:17Z</time>
      </trkpt>
      <trkpt lat="49.60954" lon="4.94188">
        <ele>282.77</ele>
        <time>2019-10-03T12:05:36Z</time>
      </trkpt>
      <trkpt lat="49.60942" lon="4.94158">
        <ele>283.25</ele>
        <time>2019-10-03T12:05:57Z</time>
      </trkpt>
      <trkpt lat="49.60931" lon="4.94131">
        <ele>284.69</ele>
        <time>2019-10-03T12:06:17Z</time>
      </trkpt>
      <trkpt lat="49.60917" lon="4.94104">
        <ele>286.61</ele>
        <time>2019-10-03T12:06:37Z</time>
      </trkpt>
      <trkpt lat="49.60906" lon="4.94078">
        <ele>286.61</ele>
        <time>2019-10-03T12:06:55Z</time>
      </trkpt>
      <trkpt lat="49.60895" lon="4.94052">
        <ele>286.61</ele>
        <time>2019-10-03T12:07:15Z</time>
      </trkpt>
      <trkpt lat="49.60885" lon="4.94028">
        <ele>286.61</ele>
        <time>2019-10-03T12:07:32Z</time>
      </trkpt>
      <trkpt lat="49.60872" lon="4.93998">
        <ele>285.65</ele>
        <time>2019-10-03T12:07:52Z</time>
      </trkpt>
      <trkpt lat="49.6086" lon="4.93971">
        <ele>284.69</ele>
        <time>2019-10-03T12:08:12Z</time>
      </trkpt>
      <trkpt lat="49.60848" lon="4.93946">
        <ele>285.65</ele>
        <time>2019-10-03T12:08:30Z</time>
      </trkpt>
      <trkpt lat="49.60835" lon="4.93918">
        <ele>287.09</ele>
        <time>2019-10-03T12:08:50Z</time>
      </trkpt>
      <trkpt lat="49.6082" lon="4.9389">
        <ele>287.57</ele>
        <time>2019-10-03T12:09:11Z</time>
      </trkpt>
      <trkpt lat="49.60807" lon="4.93864">
        <ele>287.57</ele>
        <time>2019-10-03T12:09:30Z</time>
      </trkpt>
      <trkpt lat="49.60792" lon="4.93836">
        <ele>289.01</ele>
        <time>2019-10-03T12:09:52Z</time>
      </trkpt>
      <trkpt lat="49.60784" lon="4.93822">
        <ele>289.97</ele>
        <time>2019-10-03T12:10:08Z</time>
      </trkpt>
      <trkpt lat="49.6077" lon="4.93797">
        <ele>289.01</ele>
        <time>2019-10-03T12:10:28Z</time>
      </trkpt>
      <trkpt lat="49.60761" lon="4.93783">
        <ele>288.53</ele>
        <time>2019-10-03T12:10:40Z</time>
      </trkpt>
      <trkpt lat="49.60757" lon="4.93774">
        <ele>288.53</ele>
        <time>2019-10-03T12:10:46Z</time>
      </trkpt>
      <trkpt lat="49.60744" lon="4.93753">
        <ele>288.53</ele>
        <time>2019-10-03T12:11:03Z</time>
      </trkpt>
      <trkpt lat="49.60728" lon="4.93731">
        <ele>289.01</ele>
        <time>2019-10-03T12:11:23Z</time>
      </trkpt>
      <trkpt lat="49.60711" lon="4.93705">
        <ele>289.97</ele>
        <time>2019-10-03T12:11:45Z</time>
      </trkpt>
      <trkpt lat="49.60694" lon="4.93681">
        <ele>289.97</ele>
        <time>2019-10-03T12:12:06Z</time>
      </trkpt>
      <trkpt lat="49.60677" lon="4.93655">
        <ele>291.42</ele>
        <time>2019-10-03T12:12:28Z</time>
      </trkpt>
      <trkpt lat="49.60662" lon="4.93635">
        <ele>291.42</ele>
        <time>2019-10-03T12:12:47Z</time>
      </trkpt>
      <trkpt lat="49.6066" lon="4.93634">
        <ele>291.9</ele>
        <time>2019-10-03T12:12:49Z</time>
      </trkpt>
      <trkpt lat="49.60652" lon="4.93647">
        <ele>293.82</ele>
        <time>2019-10-03T12:13:00Z</time>
      </trkpt>
      <trkpt lat="49.60652" lon="4.9368">
        <ele>297.18</ele>
        <time>2019-10-03T12:13:21Z</time>
      </trkpt>
      <trkpt lat="49.60651" lon="4.93693">
        <ele>297.67</ele>
        <time>2019-10-03T12:13:29Z</time>
      </trkpt>
      <trkpt lat="49.60649" lon="4.93722">
        <ele>299.59</ele>
        <time>2019-10-03T12:13:46Z</time>
      </trkpt>
      <trkpt lat="49.60647" lon="4.93751">
        <ele>301.51</ele>
        <time>2019-10-03T12:14:04Z</time>
      </trkpt>
      <trkpt lat="49.60644" lon="4.93785">
        <ele>301.99</ele>
        <time>2019-10-03T12:14:25Z</time>
      </trkpt>
      <trkpt lat="49.60639" lon="4.93813">
        <ele>302.95</ele>
        <time>2019-10-03T12:14:43Z</time>
      </trkpt>
      <trkpt lat="49.60633" lon="4.93846">
        <ele>304.39</ele>
        <time>2019-10-03T12:15:03Z</time>
      </trkpt>
      <trkpt lat="49.60627" lon="4.93876">
        <ele>304.88</ele>
        <time>2019-10-03T12:15:22Z</time>
      </trkpt>
      <trkpt lat="49.60621" lon="4.93903">
        <ele>304.88</ele>
        <time>2019-10-03T12:15:39Z</time>
      </trkpt>
      <trkpt lat="49.60615" lon="4.93935">
        <ele>306.8</ele>
        <time>2019-10-03T12:15:57Z</time>
      </trkpt>
      <trkpt lat="49.60607" lon="4.93971">
        <ele>307.76</ele>
        <time>2019-10-03T12:16:19Z</time>
      </trkpt>
      <trkpt lat="49.60599" lon="4.93996">
        <ele>307.76</ele>
        <time>2019-10-03T12:16:36Z</time>
      </trkpt>
      <trkpt lat="49.60588" lon="4.94024">
        <ele>305.84</ele>
        <time>2019-10-03T12:16:56Z</time>
      </trkpt>
      <trkpt lat="49.6058" lon="4.94049">
        <ele>305.36</ele>
        <time>2019-10-03T12:17:14Z</time>
      </trkpt>
      <trkpt lat="49.60568" lon="4.94079">
        <ele>302.47</ele>
        <time>2019-10-03T12:17:35Z</time>
      </trkpt>
      <trkpt lat="49.60558" lon="4.94103">
        <ele>300.07</ele>
        <time>2019-10-03T12:17:53Z</time>
      </trkpt>
      <trkpt lat="49.60545" lon="4.94134">
        <ele>297.67</ele>
        <time>2019-10-03T12:18:15Z</time>
      </trkpt>
      <trkpt lat="49.60535" lon="4.9416">
        <ele>296.7</ele>
        <time>2019-10-03T12:18:33Z</time>
      </trkpt>
      <trkpt lat="49.60523" lon="4.94188">
        <ele>296.22</ele>
        <time>2019-10-03T12:18:55Z</time>
      </trkpt>
      <trkpt lat="49.60511" lon="4.94216">
        <ele>295.26</ele>
        <time>2019-10-03T12:19:15Z</time>
      </trkpt>
      <trkpt lat="49.605" lon="4.94238">
        <ele>295.74</ele>
        <time>2019-10-03T12:19:32Z</time>
      </trkpt>
      <trkpt lat="49.6049" lon="4.9426">
        <ele>294.78</ele>
        <time>2019-10-03T12:19:49Z</time>
      </trkpt>
      <trkpt lat="49.60477" lon="4.94283">
        <ele>293.34</ele>
        <time>2019-10-03T12:20:08Z</time>
      </trkpt>
      <trkpt lat="49.60466" lon="4.94304">
        <ele>292.38</ele>
        <time>2019-10-03T12:20:25Z</time>
      </trkpt>
      <trkpt lat="49.60454" lon="4.94327">
        <ele>291.42</ele>
        <time>2019-10-03T12:20:42Z</time>
      </trkpt>
      <trkpt lat="49.6044" lon="4.94353">
        <ele>289.49</ele>
        <time>2019-10-03T12:21:03Z</time>
      </trkpt>
      <trkpt lat="49.60427" lon="4.94376">
        <ele>289.01</ele>
        <time>2019-10-03T12:21:22Z</time>
      </trkpt>
      <trkpt lat="49.60414" lon="4.94401">
        <ele>288.53</ele>
        <time>2019-10-03T12:21:43Z</time>
      </trkpt>
      <trkpt lat="49.60397" lon="4.94427">
        <ele>286.13</ele>
        <time>2019-10-03T12:22:05Z</time>
      </trkpt>
      <trkpt lat="49.60383" lon="4.94445">
        <ele>284.21</ele>
        <time>2019-10-03T12:22:23Z</time>
      </trkpt>
      <trkpt lat="49.60365" lon="4.94458">
        <ele>283.25</ele>
        <time>2019-10-03T12:22:41Z</time>
      </trkpt>
      <trkpt lat="49.60347" lon="4.94468">
        <ele>281.32</ele>
        <time>2019-10-03T12:23:02Z</time>
      </trkpt>
      <trkpt lat="49.60326" lon="4.94478">
        <ele>279.4</ele>
        <time>2019-10-03T12:23:23Z</time>
      </trkpt>
      <trkpt lat="49.60307" lon="4.94487">
        <ele>279.88</ele>
        <time>2019-10-03T12:23:43Z</time>
      </trkpt>
      <trkpt lat="49.6029" lon="4.94495">
        <ele>278.92</ele>
        <time>2019-10-03T12:24:00Z</time>
      </trkpt>
      <trkpt lat="49.60273" lon="4.94503">
        <ele>277.48</ele>
        <time>2019-10-03T12:24:18Z</time>
      </trkpt>
      <trkpt lat="49.60261" lon="4.94513">
        <ele>275.56</ele>
        <time>2019-10-03T12:24:35Z</time>
      </trkpt>
      <trkpt lat="49.6026" lon="4.94518">
        <ele>274.11</ele>
        <time>2019-10-03T12:24:39Z</time>
      </trkpt>
      <trkpt lat="49.6026" lon="4.94528">
        <ele>272.67</ele>
        <time>2019-10-03T12:24:54Z</time>
      </trkpt>
      <trkpt lat="49.60261" lon="4.94524">
        <ele>270.75</ele>
        <time>2019-10-03T12:25:21Z</time>
      </trkpt>
      <trkpt lat="49.60262" lon="4.94522">
        <ele>269.31</ele>
        <time>2019-10-03T12:25:45Z</time>
      </trkpt>
      <trkpt lat="49.60262" lon="4.94522">
        <ele>268.83</ele>
        <time>2019-10-03T12:26:11Z</time>
      </trkpt>
      <trkpt lat="49.60261" lon="4.94522">
        <ele>269.31</ele>
        <time>2019-10-03T12:26:29Z</time>
      </trkpt>
      <trkpt lat="49.6026" lon="4.94522">
        <ele>268.83</ele>
        <time>2019-10-03T12:26:45Z</time>
      </trkpt>
      <trkpt lat="49.6026" lon="4.94521">
        <ele>268.35</ele>
        <time>2019-10-03T12:27:07Z</time>
      </trkpt>
      <trkpt lat="49.60261" lon="4.9452">
        <ele>267.38</ele>
        <time>2019-10-03T12:27:37Z</time>
      </trkpt>
      <trkpt lat="49.60261" lon="4.9452">
        <ele>267.86</ele>
        <time>2019-10-03T12:27:56Z</time>
      </trkpt>
      <trkpt lat="49.60264" lon="4.94522">
        <ele>268.35</ele>
        <time>2019-10-03T12:28:11Z</time>
      </trkpt>
      <trkpt lat="49.60264" lon="4.94522">
        <ele>268.83</ele>
        <time>2019-10-03T12:28:36Z</time>
      </trkpt>
      <trkpt lat="49.60263" lon="4.94523">
        <ele>268.83</ele>
        <time>2019-10-03T12:28:52Z</time>
      </trkpt>
      <trkpt lat="49.60263" lon="4.94523">
        <ele>268.35</ele>
        <time>2019-10-03T12:29:12Z</time>
      </trkpt>
      <trkpt lat="49.60262" lon="4.94523">
        <ele>268.35</ele>
        <time>2019-10-03T12:29:40Z</time>
      </trkpt>
      <trkpt lat="49.60262" lon="4.94523">
        <ele>268.35</ele>
        <time>2019-10-03T12:30:15Z</time>
      </trkpt>
      <trkpt lat="49.60261" lon="4.94523">
        <ele>268.35</ele>
        <time>2019-10-03T12:30:40Z</time>
      </trkpt>
      <trkpt lat="49.60261" lon="4.94523">
        <ele>268.35</ele>
        <time>2019-10-03T12:31:10Z</time>
      </trkpt>
      <trkpt lat="49.6026" lon="4.94522">
        <ele>267.38</ele>
        <time>2019-10-03T12:31:34Z</time>
      </trkpt>
      <trkpt lat="49.60259" lon="4.94523">
        <ele>267.38</ele>
        <time>2019-10-03T12:31:55Z</time>
      </trkpt>
      <trkpt lat="49.60259" lon="4.94525">
        <ele>266.42</ele>
        <time>2019-10-03T12:32:17Z</time>
      </trkpt>
      <trkpt lat="49.6026" lon="4.9453">
        <ele>266.42</ele>
        <time>2019-10-03T12:32:21Z</time>
      </trkpt>
      <trkpt lat="49.60266" lon="4.94562">
        <ele>264.5</ele>
        <time>2019-10-03T12:32:39Z</time>
      </trkpt>
      <trkpt lat="49.6027" lon="4.94573">
        <ele>263.06</ele>
        <time>2019-10-03T12:32:48Z</time>
      </trkpt>
      <trkpt lat="49.60276" lon="4.94593">
        <ele>260.65</ele>
        <time>2019-10-03T12:33:04Z</time>
      </trkpt>
      <trkpt lat="49.60282" lon="4.94615">
        <ele>258.73</ele>
        <time>2019-10-03T12:33:20Z</time>
      </trkpt>
      <trkpt lat="49.60289" lon="4.94644">
        <ele>257.77</ele>
        <time>2019-10-03T12:33:38Z</time>
      </trkpt>
      <trkpt lat="49.60295" lon="4.94676">
        <ele>257.77</ele>
        <time>2019-10-03T12:33:57Z</time>
      </trkpt>
      <trkpt lat="49.603" lon="4.947">
        <ele>255.37</ele>
        <time>2019-10-03T12:34:15Z</time>
      </trkpt>
      <trkpt lat="49.60305" lon="4.94725">
        <ele>251.52</ele>
        <time>2019-10-03T12:34:33Z</time>
      </trkpt>
      <trkpt lat="49.60309" lon="4.94749">
        <ele>251.04</ele>
        <time>2019-10-03T12:34:50Z</time>
      </trkpt>
      <trkpt lat="49.60314" lon="4.94769">
        <ele>248.64</ele>
        <time>2019-10-03T12:35:05Z</time>
      </trkpt>
      <trkpt lat="49.60321" lon="4.94795">
        <ele>248.16</ele>
        <time>2019-10-03T12:35:21Z</time>
      </trkpt>
      <trkpt lat="49.60328" lon="4.94815">
        <ele>246.72</ele>
        <time>2019-10-03T12:35:37Z</time>
      </trkpt>
      <trkpt lat="49.60336" lon="4.94841">
        <ele>243.83</ele>
        <time>2019-10-03T12:35:55Z</time>
      </trkpt>
      <trkpt lat="49.60342" lon="4.94864">
        <ele>244.31</ele>
        <time>2019-10-03T12:36:12Z</time>
      </trkpt>
      <trkpt lat="49.60349" lon="4.94888">
        <ele>243.83</ele>
        <time>2019-10-03T12:36:29Z</time>
      </trkpt>
      <trkpt lat="49.6035" lon="4.94899">
        <ele>243.35</ele>
        <time>2019-10-03T12:36:36Z</time>
      </trkpt>
      <trkpt lat="49.60354" lon="4.94927">
        <ele>241.43</ele>
        <time>2019-10-03T12:36:54Z</time>
      </trkpt>
      <trkpt lat="49.60359" lon="4.94955">
        <ele>239.51</ele>
        <time>2019-10-03T12:37:12Z</time>
      </trkpt>
      <trkpt lat="49.60363" lon="4.9498">
        <ele>237.1</ele>
        <time>2019-10-03T12:37:29Z</time>
      </trkpt>
      <trkpt lat="49.60366" lon="4.95004">
        <ele>234.7</ele>
        <time>2019-10-03T12:37:46Z</time>
      </trkpt>
      <trkpt lat="49.60371" lon="4.95032">
        <ele>232.3</ele>
        <time>2019-10-03T12:38:06Z</time>
      </trkpt>
      <trkpt lat="49.60377" lon="4.9506">
        <ele>229.89</ele>
        <time>2019-10-03T12:38:26Z</time>
      </trkpt>
      <trkpt lat="49.60378" lon="4.95079">
        <ele>227.97</ele>
        <time>2019-10-03T12:38:40Z</time>
      </trkpt>
      <trkpt lat="49.60379" lon="4.95085">
        <ele>227.49</ele>
        <time>2019-10-03T12:38:44Z</time>
      </trkpt>
      <trkpt lat="49.60383" lon="4.95113">
        <ele>224.12</ele>
        <time>2019-10-03T12:39:03Z</time>
      </trkpt>
      <trkpt lat="49.60385" lon="4.95133">
        <ele>222.2</ele>
        <time>2019-10-03T12:39:17Z</time>
      </trkpt>
      <trkpt lat="49.60391" lon="4.95157">
        <ele>219.8</ele>
        <time>2019-10-03T12:39:34Z</time>
      </trkpt>
      <trkpt lat="49.60401" lon="4.95181">
        <ele>215.95</ele>
        <time>2019-10-03T12:39:54Z</time>
      </trkpt>
      <trkpt lat="49.60409" lon="4.95196">
        <ele>213.55</ele>
        <time>2019-10-03T12:40:09Z</time>
      </trkpt>
      <trkpt lat="49.6042" lon="4.95215">
        <ele>210.19</ele>
        <time>2019-10-03T12:40:28Z</time>
      </trkpt>
      <trkpt lat="49.60435" lon="4.95234">
        <ele>206.82</ele>
        <time>2019-10-03T12:40:49Z</time>
      </trkpt>
      <trkpt lat="49.6045" lon="4.95252">
        <ele>205.86</ele>
        <time>2019-10-03T12:41:08Z</time>
      </trkpt>
      <trkpt lat="49.60456" lon="4.95261">
        <ele>206.34</ele>
        <time>2019-10-03T12:41:16Z</time>
      </trkpt>
      <trkpt lat="49.60461" lon="4.95267">
        <ele>204.9</ele>
        <time>2019-10-03T12:41:22Z</time>
      </trkpt>
      <trkpt lat="49.60475" lon="4.95288">
        <ele>198.17</ele>
        <time>2019-10-03T12:41:43Z</time>
      </trkpt>
      <trkpt lat="49.60484" lon="4.95304">
        <ele>198.17</ele>
        <time>2019-10-03T12:41:59Z</time>
      </trkpt>
      <trkpt lat="49.60491" lon="4.9532">
        <ele>198.17</ele>
        <time>2019-10-03T12:42:14Z</time>
      </trkpt>
      <trkpt lat="49.605" lon="4.95339">
        <ele>195.77</ele>
        <time>2019-10-03T12:42:31Z</time>
      </trkpt>
      <trkpt lat="49.60503" lon="4.95347">
        <ele>195.28</ele>
        <time>2019-10-03T12:42:37Z</time>
      </trkpt>
      <trkpt lat="49.60511" lon="4.95366">
        <ele>194.8</ele>
        <time>2019-10-03T12:42:51Z</time>
      </trkpt>
      <trkpt lat="49.60518" lon="4.95394">
        <ele>193.36</ele>
        <time>2019-10-03T12:43:08Z</time>
      </trkpt>
      <trkpt lat="49.60526" lon="4.95419">
        <ele>192.88</ele>
        <time>2019-10-03T12:43:25Z</time>
      </trkpt>
      <trkpt lat="49.60531" lon="4.9544">
        <ele>192.4</ele>
        <time>2019-10-03T12:43:43Z</time>
      </trkpt>
      <trkpt lat="49.60529" lon="4.95451">
        <ele>194.32</ele>
        <time>2019-10-03T12:43:57Z</time>
      </trkpt>
      <trkpt lat="49.60525" lon="4.95461">
        <ele>193.84</ele>
        <time>2019-10-03T12:44:07Z</time>
      </trkpt>
      <trkpt lat="49.60508" lon="4.9548">
        <ele>194.8</ele>
        <time>2019-10-03T12:44:26Z</time>
      </trkpt>
      <trkpt lat="49.60486" lon="4.95497">
        <ele>196.25</ele>
        <time>2019-10-03T12:44:48Z</time>
      </trkpt>
      <trkpt lat="49.60463" lon="4.95508">
        <ele>196.25</ele>
        <time>2019-10-03T12:45:10Z</time>
      </trkpt>
      <trkpt lat="49.60441" lon="4.95519">
        <ele>196.25</ele>
        <time>2019-10-03T12:45:31Z</time>
      </trkpt>
      <trkpt lat="49.60421" lon="4.95531">
        <ele>196.73</ele>
        <time>2019-10-03T12:45:50Z</time>
      </trkpt>
      <trkpt lat="49.60421" lon="4.95534">
        <ele>195.77</ele>
        <time>2019-10-03T12:46:02Z</time>
      </trkpt>
      <trkpt lat="49.60412" lon="4.95543">
        <ele>193.36</ele>
        <time>2019-10-03T12:46:17Z</time>
      </trkpt>
      <trkpt lat="49.60412" lon="4.95548">
        <ele>193.36</ele>
        <time>2019-10-03T12:46:20Z</time>
      </trkpt>
      <trkpt lat="49.60411" lon="4.95561">
        <ele>193.84</ele>
        <time>2019-10-03T12:46:29Z</time>
      </trkpt>
      <trkpt lat="49.60406" lon="4.95593">
        <ele>192.88</ele>
        <time>2019-10-03T12:46:49Z</time>
      </trkpt>
      <trkpt lat="49.60405" lon="4.95621">
        <ele>189.52</ele>
        <time>2019-10-03T12:47:05Z</time>
      </trkpt>
      <trkpt lat="49.60401" lon="4.95638">
        <ele>189.04</ele>
        <time>2019-10-03T12:47:18Z</time>
      </trkpt>
      <trkpt lat="49.60395" lon="4.95661">
        <ele>189.04</ele>
        <time>2019-10-03T12:47:33Z</time>
      </trkpt>
      <trkpt lat="49.60389" lon="4.95686">
        <ele>191.44</ele>
        <time>2019-10-03T12:47:49Z</time>
      </trkpt>
      <trkpt lat="49.60381" lon="4.95707">
        <ele>193.84</ele>
        <time>2019-10-03T12:48:03Z</time>
      </trkpt>
      <trkpt lat="49.60374" lon="4.95709">
        <ele>195.28</ele>
        <time>2019-10-03T12:48:12Z</time>
      </trkpt>
      <trkpt lat="49.60355" lon="4.95696">
        <ele>193.36</ele>
        <time>2019-10-03T12:48:31Z</time>
      </trkpt>
      <trkpt lat="49.60348" lon="4.95691">
        <ele>193.36</ele>
        <time>2019-10-03T12:48:38Z</time>
      </trkpt>
      <trkpt lat="49.60331" lon="4.95685">
        <ele>193.36</ele>
        <time>2019-10-03T12:48:55Z</time>
      </trkpt>
      <trkpt lat="49.60328" lon="4.95695">
        <ele>192.88</ele>
        <time>2019-10-03T12:49:03Z</time>
      </trkpt>
      <trkpt lat="49.60327" lon="4.95697">
        <ele>192.4</ele>
        <time>2019-10-03T12:49:05Z</time>
      </trkpt>
      <trkpt lat="49.60325" lon="4.95721">
        <ele>188.08</ele>
        <time>2019-10-03T12:49:20Z</time>
      </trkpt>
      <trkpt lat="49.60324" lon="4.95748">
        <ele>189.52</ele>
        <time>2019-10-03T12:49:37Z</time>
      </trkpt>
      <trkpt lat="49.60322" lon="4.9577">
        <ele>190.96</ele>
        <time>2019-10-03T12:49:52Z</time>
      </trkpt>
      <trkpt lat="49.60323" lon="4.95779">
        <ele>190.48</ele>
        <time>2019-10-03T12:49:57Z</time>
      </trkpt>
      <trkpt lat="49.60322" lon="4.95805">
        <ele>194.32</ele>
        <time>2019-10-03T12:50:15Z</time>
      </trkpt>
      <trkpt lat="49.60323" lon="4.95816">
        <ele>195.77</ele>
        <time>2019-10-03T12:50:28Z</time>
      </trkpt>
      <trkpt lat="49.60329" lon="4.95829">
        <ele>193.84</ele>
        <time>2019-10-03T12:50:41Z</time>
      </trkpt>
      <trkpt lat="49.60344" lon="4.95849">
        <ele>191.44</ele>
        <time>2019-10-03T12:50:59Z</time>
      </trkpt>
      <trkpt lat="49.60348" lon="4.95854">
        <ele>191.44</ele>
        <time>2019-10-03T12:51:04Z</time>
      </trkpt>
      <trkpt lat="49.60357" lon="4.95876">
        <ele>191.92</ele>
        <time>2019-10-03T12:51:19Z</time>
      </trkpt>
      <trkpt lat="49.6036" lon="4.9588">
        <ele>192.4</ele>
        <time>2019-10-03T12:51:23Z</time>
      </trkpt>
      <trkpt lat="49.60374" lon="4.95907">
        <ele>194.8</ele>
        <time>2019-10-03T12:51:43Z</time>
      </trkpt>
      <trkpt lat="49.60378" lon="4.95909">
        <ele>195.28</ele>
        <time>2019-10-03T12:51:47Z</time>
      </trkpt>
      <trkpt lat="49.60393" lon="4.9592">
        <ele>196.25</ele>
        <time>2019-10-03T12:52:05Z</time>
      </trkpt>
      <trkpt lat="49.60415" lon="4.9594">
        <ele>199.13</ele>
        <time>2019-10-03T12:52:26Z</time>
      </trkpt>
      <trkpt lat="49.60436" lon="4.95957">
        <ele>201.05</ele>
        <time>2019-10-03T12:52:48Z</time>
      </trkpt>
      <trkpt lat="49.60456" lon="4.95978">
        <ele>202.98</ele>
        <time>2019-10-03T12:53:08Z</time>
      </trkpt>
      <trkpt lat="49.60472" lon="4.96001">
        <ele>204.9</ele>
        <time>2019-10-03T12:53:29Z</time>
      </trkpt>
      <trkpt lat="49.60484" lon="4.96024">
        <ele>206.82</ele>
        <time>2019-10-03T12:53:47Z</time>
      </trkpt>
      <trkpt lat="49.60499" lon="4.9605">
        <ele>208.26</ele>
        <time>2019-10-03T12:54:08Z</time>
      </trkpt>
      <trkpt lat="49.60511" lon="4.96076">
        <ele>209.22</ele>
        <time>2019-10-03T12:54:27Z</time>
      </trkpt>
      <trkpt lat="49.60524" lon="4.96107">
        <ele>210.67</ele>
        <time>2019-10-03T12:54:48Z</time>
      </trkpt>
      <trkpt lat="49.60534" lon="4.96132">
        <ele>210.67</ele>
        <time>2019-10-03T12:55:07Z</time>
      </trkpt>
      <trkpt lat="49.60543" lon="4.96163">
        <ele>209.22</ele>
        <time>2019-10-03T12:55:28Z</time>
      </trkpt>
      <trkpt lat="49.60549" lon="4.96191">
        <ele>209.22</ele>
        <time>2019-10-03T12:55:46Z</time>
      </trkpt>
      <trkpt lat="49.60554" lon="4.96223">
        <ele>209.7</ele>
        <time>2019-10-03T12:56:07Z</time>
      </trkpt>
      <trkpt lat="49.60557" lon="4.96259">
        <ele>209.7</ele>
        <time>2019-10-03T12:56:27Z</time>
      </trkpt>
      <trkpt lat="49.60558" lon="4.96291">
        <ele>209.7</ele>
        <time>2019-10-03T12:56:46Z</time>
      </trkpt>
      <trkpt lat="49.60559" lon="4.96325">
        <ele>209.22</ele>
        <time>2019-10-03T12:57:09Z</time>
      </trkpt>
      <trkpt lat="49.60558" lon="4.96356">
        <ele>207.78</ele>
        <time>2019-10-03T12:57:29Z</time>
      </trkpt>
      <trkpt lat="49.60559" lon="4.96381">
        <ele>208.74</ele>
        <time>2019-10-03T12:57:45Z</time>
      </trkpt>
      <trkpt lat="49.60562" lon="4.96415">
        <ele>210.67</ele>
        <time>2019-10-03T12:58:05Z</time>
      </trkpt>
      <trkpt lat="49.60562" lon="4.96429">
        <ele>209.22</ele>
        <time>2019-10-03T12:58:14Z</time>
      </trkpt>
      <trkpt lat="49.60564" lon="4.9646">
        <ele>207.78</ele>
        <time>2019-10-03T12:58:32Z</time>
      </trkpt>
      <trkpt lat="49.60568" lon="4.96486">
        <ele>208.26</ele>
        <time>2019-10-03T12:58:48Z</time>
      </trkpt>
      <trkpt lat="49.60575" lon="4.96517">
        <ele>208.74</ele>
        <time>2019-10-03T12:59:08Z</time>
      </trkpt>
      <trkpt lat="49.60581" lon="4.96551">
        <ele>210.19</ele>
        <time>2019-10-03T12:59:29Z</time>
      </trkpt>
      <trkpt lat="49.60585" lon="4.96577">
        <ele>209.22</ele>
        <time>2019-10-03T12:59:45Z</time>
      </trkpt>
      <trkpt lat="49.60593" lon="4.96609">
        <ele>209.22</ele>
        <time>2019-10-03T13:00:05Z</time>
      </trkpt>
      <trkpt lat="49.60593" lon="4.96612">
        <ele>209.22</ele>
        <time>2019-10-03T13:00:07Z</time>
      </trkpt>
      <trkpt lat="49.606" lon="4.96642">
        <ele>208.26</ele>
        <time>2019-10-03T13:00:26Z</time>
      </trkpt>
      <trkpt lat="49.6061" lon="4.96673">
        <ele>208.74</ele>
        <time>2019-10-03T13:00:47Z</time>
      </trkpt>
      <trkpt lat="49.60619" lon="4.96705">
        <ele>208.74</ele>
        <time>2019-10-03T13:01:08Z</time>
      </trkpt>
      <trkpt lat="49.6063" lon="4.96737">
        <ele>210.19</ele>
        <time>2019-10-03T13:01:29Z</time>
      </trkpt>
      <trkpt lat="49.60633" lon="4.96753">
        <ele>210.67</ele>
        <time>2019-10-03T13:01:39Z</time>
      </trkpt>
      <trkpt lat="49.60642" lon="4.96787">
        <ele>211.63</ele>
        <time>2019-10-03T13:02:00Z</time>
      </trkpt>
      <trkpt lat="49.60649" lon="4.96811">
        <ele>213.07</ele>
        <time>2019-10-03T13:02:17Z</time>
      </trkpt>
      <trkpt lat="49.60657" lon="4.96836">
        <ele>216.43</ele>
        <time>2019-10-03T13:02:35Z</time>
      </trkpt>
      <trkpt lat="49.60666" lon="4.96865">
        <ele>220.76</ele>
        <time>2019-10-03T13:02:55Z</time>
      </trkpt>
      <trkpt lat="49.60672" lon="4.9689">
        <ele>222.2</ele>
        <time>2019-10-03T13:03:13Z</time>
      </trkpt>
      <trkpt lat="49.60677" lon="4.96915">
        <ele>222.68</ele>
        <time>2019-10-03T13:03:31Z</time>
      </trkpt>
      <trkpt lat="49.60681" lon="4.96939">
        <ele>223.64</ele>
        <time>2019-10-03T13:03:49Z</time>
      </trkpt>
      <trkpt lat="49.60684" lon="4.96967">
        <ele>225.57</ele>
        <time>2019-10-03T13:04:07Z</time>
      </trkpt>
      <trkpt lat="49.60684" lon="4.96972">
        <ele>227.97</ele>
        <time>2019-10-03T13:04:22Z</time>
      </trkpt>
      <trkpt lat="49.60685" lon="4.96988">
        <ele>228.93</ele>
        <time>2019-10-03T13:04:37Z</time>
      </trkpt>
      <trkpt lat="49.60688" lon="4.97016">
        <ele>232.3</ele>
        <time>2019-10-03T13:04:53Z</time>
      </trkpt>
      <trkpt lat="49.6069" lon="4.97048">
        <ele>235.18</ele>
        <time>2019-10-03T13:05:11Z</time>
      </trkpt>
      <trkpt lat="49.6069" lon="4.97078">
        <ele>238.06</ele>
        <time>2019-10-03T13:05:28Z</time>
      </trkpt>
      <trkpt lat="49.6069" lon="4.97107">
        <ele>239.02</ele>
        <time>2019-10-03T13:05:46Z</time>
      </trkpt>
      <trkpt lat="49.60688" lon="4.97134">
        <ele>239.02</ele>
        <time>2019-10-03T13:06:02Z</time>
      </trkpt>
      <trkpt lat="49.60687" lon="4.97167">
        <ele>239.51</ele>
        <time>2019-10-03T13:06:21Z</time>
      </trkpt>
      <trkpt lat="49.60687" lon="4.97198">
        <ele>239.99</ele>
        <time>2019-10-03T13:06:40Z</time>
      </trkpt>
      <trkpt lat="49.60689" lon="4.97227">
        <ele>241.43</ele>
        <time>2019-10-03T13:06:58Z</time>
      </trkpt>
      <trkpt lat="49.6069" lon="4.97235">
        <ele>242.39</ele>
        <time>2019-10-03T13:07:15Z</time>
      </trkpt>
      <trkpt lat="49.6069" lon="4.97235">
        <ele>242.87</ele>
        <time>2019-10-03T13:07:33Z</time>
      </trkpt>
      <trkpt lat="49.60692" lon="4.97245">
        <ele>242.87</ele>
        <time>2019-10-03T13:07:49Z</time>
      </trkpt>
      <trkpt lat="49.607" lon="4.97277">
        <ele>241.91</ele>
        <time>2019-10-03T13:08:08Z</time>
      </trkpt>
      <trkpt lat="49.60706" lon="4.97304">
        <ele>243.83</ele>
        <time>2019-10-03T13:08:26Z</time>
      </trkpt>
      <trkpt lat="49.60715" lon="4.97331">
        <ele>245.75</ele>
        <time>2019-10-03T13:08:44Z</time>
      </trkpt>
      <trkpt lat="49.60722" lon="4.9736">
        <ele>248.64</ele>
        <time>2019-10-03T13:09:04Z</time>
      </trkpt>
      <trkpt lat="49.60729" lon="4.97382">
        <ele>251.52</ele>
        <time>2019-10-03T13:09:20Z</time>
      </trkpt>
      <trkpt lat="49.60736" lon="4.97406">
        <ele>252.48</ele>
        <time>2019-10-03T13:09:36Z</time>
      </trkpt>
      <trkpt lat="49.60746" lon="4.9743">
        <ele>253.93</ele>
        <time>2019-10-03T13:09:54Z</time>
      </trkpt>
      <trkpt lat="49.60754" lon="4.9745">
        <ele>256.33</ele>
        <time>2019-10-03T13:10:10Z</time>
      </trkpt>
      <trkpt lat="49.60765" lon="4.97478">
        <ele>263.54</ele>
        <time>2019-10-03T13:10:30Z</time>
      </trkpt>
      <trkpt lat="49.60766" lon="4.97485">
        <ele>265.94</ele>
        <time>2019-10-03T13:10:46Z</time>
      </trkpt>
      <trkpt lat="49.60772" lon="4.97502">
        <ele>265.94</ele>
        <time>2019-10-03T13:11:00Z</time>
      </trkpt>
      <trkpt lat="49.6078" lon="4.97527">
        <ele>264.02</ele>
        <time>2019-10-03T13:11:15Z</time>
      </trkpt>
      <trkpt lat="49.60783" lon="4.97531">
        <ele>263.06</ele>
        <time>2019-10-03T13:11:18Z</time>
      </trkpt>
      <trkpt lat="49.60792" lon="4.97544">
        <ele>258.25</ele>
        <time>2019-10-03T13:11:32Z</time>
      </trkpt>
      <trkpt lat="49.60796" lon="4.97568">
        <ele>261.62</ele>
        <time>2019-10-03T13:11:46Z</time>
      </trkpt>
      <trkpt lat="49.60801" lon="4.97589">
        <ele>262.1</ele>
        <time>2019-10-03T13:12:00Z</time>
      </trkpt>
      <trkpt lat="49.60807" lon="4.97606">
        <ele>263.54</ele>
        <time>2019-10-03T13:12:13Z</time>
      </trkpt>
      <trkpt lat="49.60811" lon="4.97628">
        <ele>266.9</ele>
        <time>2019-10-03T13:12:29Z</time>
      </trkpt>
      <trkpt lat="49.60818" lon="4.97647">
        <ele>264.98</ele>
        <time>2019-10-03T13:12:46Z</time>
      </trkpt>
      <trkpt lat="49.60823" lon="4.97668">
        <ele>264.02</ele>
        <time>2019-10-03T13:13:01Z</time>
      </trkpt>
      <trkpt lat="49.60828" lon="4.97691">
        <ele>265.94</ele>
        <time>2019-10-03T13:13:16Z</time>
      </trkpt>
      <trkpt lat="49.60834" lon="4.97721">
        <ele>270.75</ele>
        <time>2019-10-03T13:13:34Z</time>
      </trkpt>
      <trkpt lat="49.60832" lon="4.97741">
        <ele>279.88</ele>
        <time>2019-10-03T13:13:51Z</time>
      </trkpt>
      <trkpt lat="49.60838" lon="4.97761">
        <ele>280.84</ele>
        <time>2019-10-03T13:14:06Z</time>
      </trkpt>
      <trkpt lat="49.60845" lon="4.97782">
        <ele>282.28</ele>
        <time>2019-10-03T13:14:22Z</time>
      </trkpt>
      <trkpt lat="49.60851" lon="4.97816">
        <ele>286.13</ele>
        <time>2019-10-03T13:14:39Z</time>
      </trkpt>
      <trkpt lat="49.60858" lon="4.97838">
        <ele>289.01</ele>
        <time>2019-10-03T13:14:55Z</time>
      </trkpt>
      <trkpt lat="49.60864" lon="4.97861">
        <ele>293.34</ele>
        <time>2019-10-03T13:15:15Z</time>
      </trkpt>
      <trkpt lat="49.60873" lon="4.97884">
        <ele>293.82</ele>
        <time>2019-10-03T13:15:33Z</time>
      </trkpt>
      <trkpt lat="49.60887" lon="4.97912">
        <ele>295.74</ele>
        <time>2019-10-03T13:15:50Z</time>
      </trkpt>
      <trkpt lat="49.60903" lon="4.97941">
        <ele>294.3</ele>
        <time>2019-10-03T13:16:12Z</time>
      </trkpt>
      <trkpt lat="49.6091" lon="4.97954">
        <ele>297.67</ele>
        <time>2019-10-03T13:16:29Z</time>
      </trkpt>
      <trkpt lat="49.60922" lon="4.97974">
        <ele>301.03</ele>
        <time>2019-10-03T13:16:47Z</time>
      </trkpt>
      <trkpt lat="49.60932" lon="4.97992">
        <ele>303.43</ele>
        <time>2019-10-03T13:17:04Z</time>
      </trkpt>
      <trkpt lat="49.60946" lon="4.98014">
        <ele>304.88</ele>
        <time>2019-10-03T13:17:19Z</time>
      </trkpt>
      <trkpt lat="49.60959" lon="4.98037">
        <ele>307.28</ele>
        <time>2019-10-03T13:17:35Z</time>
      </trkpt>
      <trkpt lat="49.60974" lon="4.98053">
        <ele>304.88</ele>
        <time>2019-10-03T13:17:53Z</time>
      </trkpt>
      <trkpt lat="49.60992" lon="4.98073">
        <ele>302.95</ele>
        <time>2019-10-03T13:18:11Z</time>
      </trkpt>
      <trkpt lat="49.60999" lon="4.98083">
        <ele>302.47</ele>
        <time>2019-10-03T13:18:29Z</time>
      </trkpt>
      <trkpt lat="49.61011" lon="4.98081">
        <ele>301.51</ele>
        <time>2019-10-03T13:18:46Z</time>
      </trkpt>
      <trkpt lat="49.6102" lon="4.98066">
        <ele>299.11</ele>
        <time>2019-10-03T13:19:02Z</time>
      </trkpt>
      <trkpt lat="49.61027" lon="4.98052">
        <ele>299.59</ele>
        <time>2019-10-03T13:19:21Z</time>
      </trkpt>
      <trkpt lat="49.61045" lon="4.98024">
        <ele>299.59</ele>
        <time>2019-10-03T13:19:39Z</time>
      </trkpt>
      <trkpt lat="49.61057" lon="4.98006">
        <ele>299.11</ele>
        <time>2019-10-03T13:19:54Z</time>
      </trkpt>
      <trkpt lat="49.61068" lon="4.97991">
        <ele>300.55</ele>
        <time>2019-10-03T13:20:08Z</time>
      </trkpt>
      <trkpt lat="49.61082" lon="4.97969">
        <ele>301.51</ele>
        <time>2019-10-03T13:20:24Z</time>
      </trkpt>
      <trkpt lat="49.61097" lon="4.97949">
        <ele>302.47</ele>
        <time>2019-10-03T13:20:43Z</time>
      </trkpt>
      <trkpt lat="49.61103" lon="4.97939">
        <ele>302.95</ele>
        <time>2019-10-03T13:20:59Z</time>
      </trkpt>
      <trkpt lat="49.61109" lon="4.97932">
        <ele>302.95</ele>
        <time>2019-10-03T13:21:17Z</time>
      </trkpt>
      <trkpt lat="49.61117" lon="4.97921">
        <ele>301.03</ele>
        <time>2019-10-03T13:21:37Z</time>
      </trkpt>
      <trkpt lat="49.61125" lon="4.97906">
        <ele>299.11</ele>
        <time>2019-10-03T13:21:55Z</time>
      </trkpt>
      <trkpt lat="49.61143" lon="4.97881">
        <ele>298.15</ele>
        <time>2019-10-03T13:22:14Z</time>
      </trkpt>
      <trkpt lat="49.61165" lon="4.97855">
        <ele>296.7</ele>
        <time>2019-10-03T13:22:31Z</time>
      </trkpt>
      <trkpt lat="49.61186" lon="4.97828">
        <ele>293.34</ele>
        <time>2019-10-03T13:22:52Z</time>
      </trkpt>
      <trkpt lat="49.61198" lon="4.97817">
        <ele>291.42</ele>
        <time>2019-10-03T13:23:10Z</time>
      </trkpt>
      <trkpt lat="49.61202" lon="4.97815">
        <ele>297.18</ele>
        <time>2019-10-03T13:23:28Z</time>
      </trkpt>
      <trkpt lat="49.61207" lon="4.9781">
        <ele>296.22</ele>
        <time>2019-10-03T13:23:46Z</time>
      </trkpt>
      <trkpt lat="49.61214" lon="4.97802">
        <ele>295.74</ele>
        <time>2019-10-03T13:24:03Z</time>
      </trkpt>
      <trkpt lat="49.61227" lon="4.97792">
        <ele>295.74</ele>
        <time>2019-10-03T13:24:19Z</time>
      </trkpt>
      <trkpt lat="49.6123" lon="4.97783">
        <ele>294.78</ele>
        <time>2019-10-03T13:24:36Z</time>
      </trkpt>
      <trkpt lat="49.61236" lon="4.9778">
        <ele>293.34</ele>
        <time>2019-10-03T13:24:52Z</time>
      </trkpt>
      <trkpt lat="49.61251" lon="4.97775">
        <ele>288.53</ele>
        <time>2019-10-03T13:25:08Z</time>
      </trkpt>
      <trkpt lat="49.61265" lon="4.97768">
        <ele>285.65</ele>
        <time>2019-10-03T13:25:25Z</time>
      </trkpt>
      <trkpt lat="49.61278" lon="4.9776">
        <ele>282.28</ele>
        <time>2019-10-03T13:25:41Z</time>
      </trkpt>
      <trkpt lat="49.61287" lon="4.97752">
        <ele>282.28</ele>
        <time>2019-10-03T13:26:00Z</time>
      </trkpt>
      <trkpt lat="49.61304" lon="4.9774">
        <ele>281.8</ele>
        <time>2019-10-03T13:26:18Z</time>
      </trkpt>
      <trkpt lat="49.61317" lon="4.97728">
        <ele>281.8</ele>
        <time>2019-10-03T13:26:34Z</time>
      </trkpt>
      <trkpt lat="49.61329" lon="4.97717">
        <ele>282.28</ele>
        <time>2019-10-03T13:26:50Z</time>
      </trkpt>
      <trkpt lat="49.61334" lon="4.97714">
        <ele>282.28</ele>
        <time>2019-10-03T13:27:03Z</time>
      </trkpt>
      <trkpt lat="49.61347" lon="4.97705">
        <ele>279.88</ele>
        <time>2019-10-03T13:27:19Z</time>
      </trkpt>
      <trkpt lat="49.61357" lon="4.97698">
        <ele>277.96</ele>
        <time>2019-10-03T13:27:33Z</time>
      </trkpt>
      <trkpt lat="49.6137" lon="4.97684">
        <ele>276.04</ele>
        <time>2019-10-03T13:27:50Z</time>
      </trkpt>
      <trkpt lat="49.61385" lon="4.97667">
        <ele>273.63</ele>
        <time>2019-10-03T13:28:10Z</time>
      </trkpt>
      <trkpt lat="49.614" lon="4.97649">
        <ele>272.19</ele>
        <time>2019-10-03T13:28:30Z</time>
      </trkpt>
      <trkpt lat="49.61418" lon="4.97629">
        <ele>270.27</ele>
        <time>2019-10-03T13:28:51Z</time>
      </trkpt>
      <trkpt lat="49.6143" lon="4.97612">
        <ele>270.75</ele>
        <time>2019-10-03T13:29:09Z</time>
      </trkpt>
      <trkpt lat="49.61443" lon="4.97597">
        <ele>267.38</ele>
        <time>2019-10-03T13:29:26Z</time>
      </trkpt>
      <trkpt lat="49.61454" lon="4.97579">
        <ele>264.98</ele>
        <time>2019-10-03T13:29:44Z</time>
      </trkpt>
      <trkpt lat="49.6146" lon="4.97572">
        <ele>263.06</ele>
        <time>2019-10-03T13:29:52Z</time>
      </trkpt>
      <trkpt lat="49.61474" lon="4.9755">
        <ele>262.1</ele>
        <time>2019-10-03T13:30:13Z</time>
      </trkpt>
      <trkpt lat="49.61489" lon="4.97534">
        <ele>260.17</ele>
        <time>2019-10-03T13:30:32Z</time>
      </trkpt>
      <trkpt lat="49.615" lon="4.97519">
        <ele>257.77</ele>
        <time>2019-10-03T13:30:50Z</time>
      </trkpt>
      <trkpt lat="49.61514" lon="4.975">
        <ele>256.33</ele>
        <time>2019-10-03T13:31:11Z</time>
      </trkpt>
      <trkpt lat="49.61525" lon="4.97482">
        <ele>252.96</ele>
        <time>2019-10-03T13:31:27Z</time>
      </trkpt>
      <trkpt lat="49.61538" lon="4.97463">
        <ele>251.04</ele>
        <time>2019-10-03T13:31:44Z</time>
      </trkpt>
      <trkpt lat="49.61545" lon="4.97451">
        <ele>250.08</ele>
        <time>2019-10-03T13:31:55Z</time>
      </trkpt>
      <trkpt lat="49.61559" lon="4.97429">
        <ele>249.12</ele>
        <time>2019-10-03T13:32:14Z</time>
      </trkpt>
      <trkpt lat="49.61572" lon="4.9741">
        <ele>247.68</ele>
        <time>2019-10-03T13:32:31Z</time>
      </trkpt>
      <trkpt lat="49.61584" lon="4.97389">
        <ele>246.72</ele>
        <time>2019-10-03T13:32:48Z</time>
      </trkpt>
      <trkpt lat="49.61586" lon="4.97388">
        <ele>246.72</ele>
        <time>2019-10-03T13:32:50Z</time>
      </trkpt>
      <trkpt lat="49.61603" lon="4.97364">
        <ele>247.68</ele>
        <time>2019-10-03T13:33:11Z</time>
      </trkpt>
      <trkpt lat="49.61618" lon="4.97341">
        <ele>247.2</ele>
        <time>2019-10-03T13:33:31Z</time>
      </trkpt>
      <trkpt lat="49.6163" lon="4.97325">
        <ele>247.2</ele>
        <time>2019-10-03T13:33:46Z</time>
      </trkpt>
      <trkpt lat="49.61647" lon="4.97304">
        <ele>246.72</ele>
        <time>2019-10-03T13:34:06Z</time>
      </trkpt>
      <trkpt lat="49.61664" lon="4.97282">
        <ele>246.72</ele>
        <time>2019-10-03T13:34:27Z</time>
      </trkpt>
      <trkpt lat="49.61678" lon="4.9726">
        <ele>247.2</ele>
        <time>2019-10-03T13:34:46Z</time>
      </trkpt>
      <trkpt lat="49.61691" lon="4.97239">
        <ele>249.12</ele>
        <time>2019-10-03T13:35:03Z</time>
      </trkpt>
      <trkpt lat="49.61703" lon="4.97216">
        <ele>251.04</ele>
        <time>2019-10-03T13:35:20Z</time>
      </trkpt>
      <trkpt lat="49.6172" lon="4.97191">
        <ele>249.12</ele>
        <time>2019-10-03T13:35:41Z</time>
      </trkpt>
      <trkpt lat="49.61736" lon="4.97173">
        <ele>249.6</ele>
        <time>2019-10-03T13:36:00Z</time>
      </trkpt>
      <trkpt lat="49.6175" lon="4.97154">
        <ele>251.04</ele>
        <time>2019-10-03T13:36:19Z</time>
      </trkpt>
      <trkpt lat="49.61751" lon="4.97154">
        <ele>251.04</ele>
        <time>2019-10-03T13:36:20Z</time>
      </trkpt>
      <trkpt lat="49.61749" lon="4.97157">
        <ele>248.16</ele>
        <time>2019-10-03T13:36:36Z</time>
      </trkpt>
      <trkpt lat="49.61746" lon="4.97161">
        <ele>247.68</ele>
        <time>2019-10-03T13:36:40Z</time>
      </trkpt>
      <trkpt lat="49.61728" lon="4.97179">
        <ele>245.27</ele>
        <time>2019-10-03T13:36:59Z</time>
      </trkpt>
      <trkpt lat="49.61711" lon="4.972">
        <ele>244.79</ele>
        <time>2019-10-03T13:37:16Z</time>
      </trkpt>
      <trkpt lat="49.61704" lon="4.9721">
        <ele>245.27</ele>
        <time>2019-10-03T13:37:32Z</time>
      </trkpt>
      <trkpt lat="49.61704" lon="4.97209">
        <ele>245.75</ele>
        <time>2019-10-03T13:37:51Z</time>
      </trkpt>
      <trkpt lat="49.61704" lon="4.9721">
        <ele>246.23</ele>
        <time>2019-10-03T13:38:14Z</time>
      </trkpt>
      <trkpt lat="49.61705" lon="4.97209">
        <ele>247.2</ele>
        <time>2019-10-03T13:38:36Z</time>
      </trkpt>
      <trkpt lat="49.61705" lon="4.97209">
        <ele>247.68</ele>
        <time>2019-10-03T13:38:58Z</time>
      </trkpt>
      <trkpt lat="49.61705" lon="4.97209">
        <ele>248.64</ele>
        <time>2019-10-03T13:39:18Z</time>
      </trkpt>
      <trkpt lat="49.61706" lon="4.97208">
        <ele>248.64</ele>
        <time>2019-10-03T13:39:44Z</time>
      </trkpt>
      <trkpt lat="49.61706" lon="4.97209">
        <ele>248.64</ele>
        <time>2019-10-03T13:40:08Z</time>
      </trkpt>
      <trkpt lat="49.61706" lon="4.97209">
        <ele>249.12</ele>
        <time>2019-10-03T13:40:29Z</time>
      </trkpt>
      <trkpt lat="49.61705" lon="4.9721">
        <ele>248.64</ele>
        <time>2019-10-03T13:40:56Z</time>
      </trkpt>
      <trkpt lat="49.61705" lon="4.9721">
        <ele>249.12</ele>
        <time>2019-10-03T13:41:16Z</time>
      </trkpt>
      <trkpt lat="49.61705" lon="4.97211">
        <ele>249.6</ele>
        <time>2019-10-03T13:41:37Z</time>
      </trkpt>
      <trkpt lat="49.61705" lon="4.97211">
        <ele>249.12</ele>
        <time>2019-10-03T13:42:01Z</time>
      </trkpt>
      <trkpt lat="49.61705" lon="4.97211">
        <ele>249.6</ele>
        <time>2019-10-03T13:42:24Z</time>
      </trkpt>
      <trkpt lat="49.61705" lon="4.97211">
        <ele>249.12</ele>
        <time>2019-10-03T13:42:42Z</time>
      </trkpt>
      <trkpt lat="49.61705" lon="4.97211">
        <ele>248.64</ele>
        <time>2019-10-03T13:43:08Z</time>
      </trkpt>
      <trkpt lat="49.61706" lon="4.97211">
        <ele>248.64</ele>
        <time>2019-10-03T13:43:32Z</time>
      </trkpt>
      <trkpt lat="49.61706" lon="4.97211">
        <ele>249.12</ele>
        <time>2019-10-03T13:43:54Z</time>
      </trkpt>
      <trkpt lat="49.61706" lon="4.97211">
        <ele>248.64</ele>
        <time>2019-10-03T13:44:13Z</time>
      </trkpt>
      <trkpt lat="49.61706" lon="4.97211">
        <ele>248.16</ele>
        <time>2019-10-03T13:44:34Z</time>
      </trkpt>
      <trkpt lat="49.61706" lon="4.97211">
        <ele>248.16</ele>
        <time>2019-10-03T13:45:01Z</time>
      </trkpt>
      <trkpt lat="49.61707" lon="4.97211">
        <ele>247.68</ele>
        <time>2019-10-03T13:45:24Z</time>
      </trkpt>
      <trkpt lat="49.61707" lon="4.97211">
        <ele>248.16</ele>
        <time>2019-10-03T13:45:49Z</time>
      </trkpt>
      <trkpt lat="49.61707" lon="4.97211">
        <ele>249.12</ele>
        <time>2019-10-03T13:46:16Z</time>
      </trkpt>
      <trkpt lat="49.61707" lon="4.9721">
        <ele>249.6</ele>
        <time>2019-10-03T13:46:40Z</time>
      </trkpt>
      <trkpt lat="49.61707" lon="4.9721">
        <ele>250.08</ele>
        <time>2019-10-03T13:47:00Z</time>
      </trkpt>
      <trkpt lat="49.61707" lon="4.9721">
        <ele>250.56</ele>
        <time>2019-10-03T13:47:19Z</time>
      </trkpt>
      <trkpt lat="49.61708" lon="4.97211">
        <ele>251.04</ele>
        <time>2019-10-03T13:47:47Z</time>
      </trkpt>
      <trkpt lat="49.61708" lon="4.9721">
        <ele>251.04</ele>
        <time>2019-10-03T13:48:08Z</time>
      </trkpt>
      <trkpt lat="49.61708" lon="4.9721">
        <ele>252</ele>
        <time>2019-10-03T13:48:28Z</time>
      </trkpt>
      <trkpt lat="49.61708" lon="4.9721">
        <ele>250.56</ele>
        <time>2019-10-03T13:48:47Z</time>
      </trkpt>
      <trkpt lat="49.6171" lon="4.97206">
        <ele>250.08</ele>
        <time>2019-10-03T13:49:04Z</time>
      </trkpt>
      <trkpt lat="49.6172" lon="4.97192">
        <ele>249.6</ele>
        <time>2019-10-03T13:49:20Z</time>
      </trkpt>
      <trkpt lat="49.61731" lon="4.97176">
        <ele>247.2</ele>
        <time>2019-10-03T13:49:36Z</time>
      </trkpt>
      <trkpt lat="49.61743" lon="4.97161">
        <ele>245.27</ele>
        <time>2019-10-03T13:49:54Z</time>
      </trkpt>
      <trkpt lat="49.61749" lon="4.9716">
        <ele>244.31</ele>
        <time>2019-10-03T13:50:08Z</time>
      </trkpt>
      <trkpt lat="49.6175" lon="4.97159">
        <ele>243.83</ele>
        <time>2019-10-03T13:50:26Z</time>
      </trkpt>
      <trkpt lat="49.61754" lon="4.97162">
        <ele>244.31</ele>
        <time>2019-10-03T13:50:31Z</time>
      </trkpt>
      <trkpt lat="49.61766" lon="4.97193">
        <ele>247.2</ele>
        <time>2019-10-03T13:50:50Z</time>
      </trkpt>
      <trkpt lat="49.61775" lon="4.97219">
        <ele>247.68</ele>
        <time>2019-10-03T13:51:07Z</time>
      </trkpt>
      <trkpt lat="49.61782" lon="4.97249">
        <ele>250.08</ele>
        <time>2019-10-03T13:51:25Z</time>
      </trkpt>
      <trkpt lat="49.61787" lon="4.97275">
        <ele>252.96</ele>
        <time>2019-10-03T13:51:41Z</time>
      </trkpt>
      <trkpt lat="49.61792" lon="4.97304">
        <ele>253.44</ele>
        <time>2019-10-03T13:51:58Z</time>
      </trkpt>
      <trkpt lat="49.61801" lon="4.97336">
        <ele>253.93</ele>
        <time>2019-10-03T13:52:18Z</time>
      </trkpt>
      <trkpt lat="49.61808" lon="4.97363">
        <ele>255.85</ele>
        <time>2019-10-03T13:52:34Z</time>
      </trkpt>
      <trkpt lat="49.61815" lon="4.97395">
        <ele>257.29</ele>
        <time>2019-10-03T13:52:53Z</time>
      </trkpt>
      <trkpt lat="49.61827" lon="4.9742">
        <ele>257.77</ele>
        <time>2019-10-03T13:53:11Z</time>
      </trkpt>
      <trkpt lat="49.61847" lon="4.97443">
        <ele>258.25</ele>
        <time>2019-10-03T13:53:32Z</time>
      </trkpt>
      <trkpt lat="49.61862" lon="4.97464">
        <ele>260.17</ele>
        <time>2019-10-03T13:53:49Z</time>
      </trkpt>
      <trkpt lat="49.61879" lon="4.97489">
        <ele>263.54</ele>
        <time>2019-10-03T13:54:10Z</time>
      </trkpt>
      <trkpt lat="49.61896" lon="4.97503">
        <ele>264.98</ele>
        <time>2019-10-03T13:54:27Z</time>
      </trkpt>
      <trkpt lat="49.61899" lon="4.97503">
        <ele>264.98</ele>
        <time>2019-10-03T13:54:41Z</time>
      </trkpt>
      <trkpt lat="49.61917" lon="4.97505">
        <ele>266.42</ele>
        <time>2019-10-03T13:54:57Z</time>
      </trkpt>
      <trkpt lat="49.61941" lon="4.97505">
        <ele>268.83</ele>
        <time>2019-10-03T13:55:18Z</time>
      </trkpt>
      <trkpt lat="49.61956" lon="4.97504">
        <ele>270.27</ele>
        <time>2019-10-03T13:55:32Z</time>
      </trkpt>
      <trkpt lat="49.6198" lon="4.97504">
        <ele>272.19</ele>
        <time>2019-10-03T13:55:53Z</time>
      </trkpt>
      <trkpt lat="49.62005" lon="4.97503">
        <ele>273.63</ele>
        <time>2019-10-03T13:56:15Z</time>
      </trkpt>
      <trkpt lat="49.62025" lon="4.97504">
        <ele>273.63</ele>
        <time>2019-10-03T13:56:34Z</time>
      </trkpt>
      <trkpt lat="49.62029" lon="4.97505">
        <ele>273.63</ele>
        <time>2019-10-03T13:56:38Z</time>
      </trkpt>
      <trkpt lat="49.62035" lon="4.97513">
        <ele>274.59</ele>
        <time>2019-10-03T13:56:46Z</time>
      </trkpt>
      <trkpt lat="49.62034" lon="4.9755">
        <ele>277.48</ele>
        <time>2019-10-03T13:57:08Z</time>
      </trkpt>
      <trkpt lat="49.62032" lon="4.97583">
        <ele>277.96</ele>
        <time>2019-10-03T13:57:28Z</time>
      </trkpt>
      <trkpt lat="49.62031" lon="4.97603">
        <ele>277.48</ele>
        <time>2019-10-03T13:57:43Z</time>
      </trkpt>
      <trkpt lat="49.62028" lon="4.97638">
        <ele>277.96</ele>
        <time>2019-10-03T13:58:04Z</time>
      </trkpt>
      <trkpt lat="49.62023" lon="4.97676">
        <ele>278.44</ele>
        <time>2019-10-03T13:58:27Z</time>
      </trkpt>
      <trkpt lat="49.6202" lon="4.97711">
        <ele>277.96</ele>
        <time>2019-10-03T13:58:48Z</time>
      </trkpt>
      <trkpt lat="49.62016" lon="4.97744">
        <ele>277.96</ele>
        <time>2019-10-03T13:59:10Z</time>
      </trkpt>
      <trkpt lat="49.62009" lon="4.9778">
        <ele>277.48</ele>
        <time>2019-10-03T13:59:32Z</time>
      </trkpt>
      <trkpt lat="49.62002" lon="4.97817">
        <ele>277.48</ele>
        <time>2019-10-03T13:59:55Z</time>
      </trkpt>
      <trkpt lat="49.61996" lon="4.97843">
        <ele>279.4</ele>
        <time>2019-10-03T14:00:13Z</time>
      </trkpt>
      <trkpt lat="49.61988" lon="4.97867">
        <ele>278.92</ele>
        <time>2019-10-03T14:00:31Z</time>
      </trkpt>
      <trkpt lat="49.61983" lon="4.97877">
        <ele>278.92</ele>
        <time>2019-10-03T14:00:49Z</time>
      </trkpt>
      <trkpt lat="49.61981" lon="4.9788">
        <ele>277.96</ele>
        <time>2019-10-03T14:01:05Z</time>
      </trkpt>
      <trkpt lat="49.61977" lon="4.97888">
        <ele>277.48</ele>
        <time>2019-10-03T14:01:23Z</time>
      </trkpt>
      <trkpt lat="49.61973" lon="4.97895">
        <ele>276.52</ele>
        <time>2019-10-03T14:01:38Z</time>
      </trkpt>
      <trkpt lat="49.61967" lon="4.97906">
        <ele>276.04</ele>
        <time>2019-10-03T14:01:54Z</time>
      </trkpt>
      <trkpt lat="49.61953" lon="4.97927">
        <ele>277.48</ele>
        <time>2019-10-03T14:02:13Z</time>
      </trkpt>
      <trkpt lat="49.6194" lon="4.97944">
        <ele>277.48</ele>
        <time>2019-10-03T14:02:31Z</time>
      </trkpt>
      <trkpt lat="49.61923" lon="4.97965">
        <ele>278.44</ele>
        <time>2019-10-03T14:02:50Z</time>
      </trkpt>
      <trkpt lat="49.61908" lon="4.97992">
        <ele>278.92</ele>
        <time>2019-10-03T14:03:11Z</time>
      </trkpt>
      <trkpt lat="49.61896" lon="4.98019">
        <ele>278.92</ele>
        <time>2019-10-03T14:03:32Z</time>
      </trkpt>
      <trkpt lat="49.61889" lon="4.98041">
        <ele>276.04</ele>
        <time>2019-10-03T14:03:48Z</time>
      </trkpt>
      <trkpt lat="49.61877" lon="4.98066">
        <ele>277</ele>
        <time>2019-10-03T14:04:05Z</time>
      </trkpt>
      <trkpt lat="49.61869" lon="4.9809">
        <ele>278.44</ele>
        <time>2019-10-03T14:04:23Z</time>
      </trkpt>
      <trkpt lat="49.61863" lon="4.98112">
        <ele>274.59</ele>
        <time>2019-10-03T14:04:43Z</time>
      </trkpt>
      <trkpt lat="49.61853" lon="4.98138">
        <ele>277</ele>
        <time>2019-10-03T14:05:02Z</time>
      </trkpt>
      <trkpt lat="49.61843" lon="4.98161">
        <ele>277.96</ele>
        <time>2019-10-03T14:05:19Z</time>
      </trkpt>
      <trkpt lat="49.61841" lon="4.98176">
        <ele>278.92</ele>
        <time>2019-10-03T14:05:34Z</time>
      </trkpt>
      <trkpt lat="49.61845" lon="4.98177">
        <ele>284.21</ele>
        <time>2019-10-03T14:05:50Z</time>
      </trkpt>
      <trkpt lat="49.61857" lon="4.98165">
        <ele>284.69</ele>
        <time>2019-10-03T14:06:07Z</time>
      </trkpt>
      <trkpt lat="49.61868" lon="4.98157">
        <ele>279.4</ele>
        <time>2019-10-03T14:06:24Z</time>
      </trkpt>
      <trkpt lat="49.61878" lon="4.9815">
        <ele>277</ele>
        <time>2019-10-03T14:06:39Z</time>
      </trkpt>
      <trkpt lat="49.6189" lon="4.9815">
        <ele>276.04</ele>
        <time>2019-10-03T14:06:53Z</time>
      </trkpt>
      <trkpt lat="49.61905" lon="4.98154">
        <ele>275.07</ele>
        <time>2019-10-03T14:07:10Z</time>
      </trkpt>
      <trkpt lat="49.61918" lon="4.98159">
        <ele>275.07</ele>
        <time>2019-10-03T14:07:29Z</time>
      </trkpt>
      <trkpt lat="49.6194" lon="4.98167">
        <ele>274.59</ele>
        <time>2019-10-03T14:07:47Z</time>
      </trkpt>
      <trkpt lat="49.61962" lon="4.98177">
        <ele>274.11</ele>
        <time>2019-10-03T14:08:04Z</time>
      </trkpt>
      <trkpt lat="49.61986" lon="4.98186">
        <ele>275.56</ele>
        <time>2019-10-03T14:08:21Z</time>
      </trkpt>
      <trkpt lat="49.62006" lon="4.98194">
        <ele>271.71</ele>
        <time>2019-10-03T14:08:39Z</time>
      </trkpt>
      <trkpt lat="49.62027" lon="4.98201">
        <ele>271.23</ele>
        <time>2019-10-03T14:08:59Z</time>
      </trkpt>
      <trkpt lat="49.62044" lon="4.98212">
        <ele>273.63</ele>
        <time>2019-10-03T14:09:16Z</time>
      </trkpt>
      <trkpt lat="49.62059" lon="4.98218">
        <ele>273.15</ele>
        <time>2019-10-03T14:09:34Z</time>
      </trkpt>
      <trkpt lat="49.62073" lon="4.98223">
        <ele>273.15</ele>
        <time>2019-10-03T14:09:51Z</time>
      </trkpt>
      <trkpt lat="49.6209" lon="4.98231">
        <ele>273.63</ele>
        <time>2019-10-03T14:10:07Z</time>
      </trkpt>
      <trkpt lat="49.62103" lon="4.98239">
        <ele>272.67</ele>
        <time>2019-10-03T14:10:20Z</time>
      </trkpt>
      <trkpt lat="49.62119" lon="4.9825">
        <ele>272.19</ele>
        <time>2019-10-03T14:10:37Z</time>
      </trkpt>
      <trkpt lat="49.62135" lon="4.98263">
        <ele>270.27</ele>
        <time>2019-10-03T14:10:55Z</time>
      </trkpt>
      <trkpt lat="49.62149" lon="4.98273">
        <ele>267.38</ele>
        <time>2019-10-03T14:11:12Z</time>
      </trkpt>
      <trkpt lat="49.62167" lon="4.9828">
        <ele>266.9</ele>
        <time>2019-10-03T14:11:31Z</time>
      </trkpt>
      <trkpt lat="49.62186" lon="4.9829">
        <ele>265.46</ele>
        <time>2019-10-03T14:11:49Z</time>
      </trkpt>
      <trkpt lat="49.62192" lon="4.98294">
        <ele>265.94</ele>
        <time>2019-10-03T14:12:09Z</time>
      </trkpt>
      <trkpt lat="49.62202" lon="4.98298">
        <ele>261.62</ele>
        <time>2019-10-03T14:12:25Z</time>
      </trkpt>
      <trkpt lat="49.62213" lon="4.98303">
        <ele>261.14</ele>
        <time>2019-10-03T14:12:42Z</time>
      </trkpt>
      <trkpt lat="49.62221" lon="4.98307">
        <ele>262.58</ele>
        <time>2019-10-03T14:12:59Z</time>
      </trkpt>
      <trkpt lat="49.62236" lon="4.98324">
        <ele>257.77</ele>
        <time>2019-10-03T14:13:16Z</time>
      </trkpt>
      <trkpt lat="49.62248" lon="4.98335">
        <ele>258.25</ele>
        <time>2019-10-03T14:13:30Z</time>
      </trkpt>
      <trkpt lat="49.62261" lon="4.98351">
        <ele>260.17</ele>
        <time>2019-10-03T14:13:44Z</time>
      </trkpt>
      <trkpt lat="49.62282" lon="4.9838">
        <ele>263.06</ele>
        <time>2019-10-03T14:14:03Z</time>
      </trkpt>
      <trkpt lat="49.62301" lon="4.98404">
        <ele>262.58</ele>
        <time>2019-10-03T14:14:21Z</time>
      </trkpt>
      <trkpt lat="49.62316" lon="4.98422">
        <ele>262.1</ele>
        <time>2019-10-03T14:14:38Z</time>
      </trkpt>
      <trkpt lat="49.62334" lon="4.98438">
        <ele>260.65</ele>
        <time>2019-10-03T14:14:55Z</time>
      </trkpt>
      <trkpt lat="49.62353" lon="4.98453">
        <ele>261.62</ele>
        <time>2019-10-03T14:15:14Z</time>
      </trkpt>
      <trkpt lat="49.62373" lon="4.98462">
        <ele>261.14</ele>
        <time>2019-10-03T14:15:34Z</time>
      </trkpt>
      <trkpt lat="49.62386" lon="4.98471">
        <ele>262.1</ele>
        <time>2019-10-03T14:15:50Z</time>
      </trkpt>
      <trkpt lat="49.62401" lon="4.98481">
        <ele>260.65</ele>
        <time>2019-10-03T14:16:07Z</time>
      </trkpt>
      <trkpt lat="49.62418" lon="4.98492">
        <ele>256.81</ele>
        <time>2019-10-03T14:16:26Z</time>
      </trkpt>
      <trkpt lat="49.62434" lon="4.98503">
        <ele>255.37</ele>
        <time>2019-10-03T14:16:44Z</time>
      </trkpt>
      <trkpt lat="49.62452" lon="4.98518">
        <ele>256.81</ele>
        <time>2019-10-03T14:17:03Z</time>
      </trkpt>
      <trkpt lat="49.62468" lon="4.9853">
        <ele>257.29</ele>
        <time>2019-10-03T14:17:21Z</time>
      </trkpt>
      <trkpt lat="49.62471" lon="4.98532">
        <ele>256.81</ele>
        <time>2019-10-03T14:17:24Z</time>
      </trkpt>
      <trkpt lat="49.62491" lon="4.9855">
        <ele>255.37</ele>
        <time>2019-10-03T14:17:47Z</time>
      </trkpt>
      <trkpt lat="49.62507" lon="4.98559">
        <ele>254.89</ele>
        <time>2019-10-03T14:18:06Z</time>
      </trkpt>
      <trkpt lat="49.62522" lon="4.98561">
        <ele>252.96</ele>
        <time>2019-10-03T14:18:23Z</time>
      </trkpt>
      <trkpt lat="49.62524" lon="4.98561">
        <ele>252.96</ele>
        <time>2019-10-03T14:18:26Z</time>
      </trkpt>
      <trkpt lat="49.62545" lon="4.98559">
        <ele>254.41</ele>
        <time>2019-10-03T14:18:46Z</time>
      </trkpt>
      <trkpt lat="49.62554" lon="4.9857">
        <ele>253.93</ele>
        <time>2019-10-03T14:19:02Z</time>
      </trkpt>
      <trkpt lat="49.62559" lon="4.98583">
        <ele>252.48</ele>
        <time>2019-10-03T14:19:18Z</time>
      </trkpt>
      <trkpt lat="49.6257" lon="4.98577">
        <ele>253.93</ele>
        <time>2019-10-03T14:19:34Z</time>
      </trkpt>
      <trkpt lat="49.62587" lon="4.98563">
        <ele>250.56</ele>
        <time>2019-10-03T14:19:55Z</time>
      </trkpt>
      <trkpt lat="49.62605" lon="4.98548">
        <ele>250.08</ele>
        <time>2019-10-03T14:20:14Z</time>
      </trkpt>
      <trkpt lat="49.62621" lon="4.98534">
        <ele>248.16</ele>
        <time>2019-10-03T14:20:32Z</time>
      </trkpt>
      <trkpt lat="49.62641" lon="4.98516">
        <ele>248.16</ele>
        <time>2019-10-03T14:20:54Z</time>
      </trkpt>
      <trkpt lat="49.62658" lon="4.98501">
        <ele>246.72</ele>
        <time>2019-10-03T14:21:13Z</time>
      </trkpt>
      <trkpt lat="49.62675" lon="4.98488">
        <ele>245.75</ele>
        <time>2019-10-03T14:21:32Z</time>
      </trkpt>
      <trkpt lat="49.62693" lon="4.98472">
        <ele>243.35</ele>
        <time>2019-10-03T14:21:54Z</time>
      </trkpt>
      <trkpt lat="49.62709" lon="4.98458">
        <ele>246.72</ele>
        <time>2019-10-03T14:22:13Z</time>
      </trkpt>
      <trkpt lat="49.62728" lon="4.98441">
        <ele>248.16</ele>
        <time>2019-10-03T14:22:34Z</time>
      </trkpt>
      <trkpt lat="49.62745" lon="4.98428">
        <ele>244.79</ele>
        <time>2019-10-03T14:22:55Z</time>
      </trkpt>
      <trkpt lat="49.6276" lon="4.98415">
        <ele>241.43</ele>
        <time>2019-10-03T14:23:14Z</time>
      </trkpt>
      <trkpt lat="49.62775" lon="4.98404">
        <ele>239.51</ele>
        <time>2019-10-03T14:23:31Z</time>
      </trkpt>
      <trkpt lat="49.62794" lon="4.98388">
        <ele>238.06</ele>
        <time>2019-10-03T14:23:53Z</time>
      </trkpt>
      <trkpt lat="49.6281" lon="4.98377">
        <ele>235.66</ele>
        <time>2019-10-03T14:24:13Z</time>
      </trkpt>
      <trkpt lat="49.62819" lon="4.98369">
        <ele>234.22</ele>
        <time>2019-10-03T14:24:29Z</time>
      </trkpt>
      <trkpt lat="49.62824" lon="4.98367">
        <ele>235.66</ele>
        <time>2019-10-03T14:24:49Z</time>
      </trkpt>
      <trkpt lat="49.62825" lon="4.98367">
        <ele>237.1</ele>
        <time>2019-10-03T14:25:11Z</time>
      </trkpt>
      <trkpt lat="49.62834" lon="4.98362">
        <ele>236.62</ele>
        <time>2019-10-03T14:25:33Z</time>
      </trkpt>
      <trkpt lat="49.62854" lon="4.98351">
        <ele>232.3</ele>
        <time>2019-10-03T14:25:56Z</time>
      </trkpt>
      <trkpt lat="49.62868" lon="4.98347">
        <ele>227.49</ele>
        <time>2019-10-03T14:26:14Z</time>
      </trkpt>
      <trkpt lat="49.62886" lon="4.98345">
        <ele>226.53</ele>
        <time>2019-10-03T14:26:33Z</time>
      </trkpt>
      <trkpt lat="49.62903" lon="4.9834">
        <ele>226.05</ele>
        <time>2019-10-03T14:26:52Z</time>
      </trkpt>
      <trkpt lat="49.6292" lon="4.98338">
        <ele>223.64</ele>
        <time>2019-10-03T14:27:10Z</time>
      </trkpt>
      <trkpt lat="49.62935" lon="4.98333">
        <ele>220.76</ele>
        <time>2019-10-03T14:27:28Z</time>
      </trkpt>
      <trkpt lat="49.62954" lon="4.98334">
        <ele>218.36</ele>
        <time>2019-10-03T14:27:47Z</time>
      </trkpt>
      <trkpt lat="49.62966" lon="4.98331">
        <ele>214.51</ele>
        <time>2019-10-03T14:28:02Z</time>
      </trkpt>
      <trkpt lat="49.62982" lon="4.9833">
        <ele>212.59</ele>
        <time>2019-10-03T14:28:19Z</time>
      </trkpt>
      <trkpt lat="49.63" lon="4.98329">
        <ele>217.4</ele>
        <time>2019-10-03T14:28:34Z</time>
      </trkpt>
      <trkpt lat="49.63014" lon="4.98334">
        <ele>211.63</ele>
        <time>2019-10-03T14:28:51Z</time>
      </trkpt>
      <trkpt lat="49.63026" lon="4.98334">
        <ele>209.22</ele>
        <time>2019-10-03T14:29:05Z</time>
      </trkpt>
      <trkpt lat="49.63042" lon="4.98339">
        <ele>209.22</ele>
        <time>2019-10-03T14:29:21Z</time>
      </trkpt>
      <trkpt lat="49.63055" lon="4.98336">
        <ele>207.78</ele>
        <time>2019-10-03T14:29:38Z</time>
      </trkpt>
      <trkpt lat="49.6307" lon="4.98335">
        <ele>204.42</ele>
        <time>2019-10-03T14:29:56Z</time>
      </trkpt>
      <trkpt lat="49.63084" lon="4.98335">
        <ele>202.98</ele>
        <time>2019-10-03T14:30:12Z</time>
      </trkpt>
      <trkpt lat="49.63102" lon="4.98338">
        <ele>203.46</ele>
        <time>2019-10-03T14:30:28Z</time>
      </trkpt>
      <trkpt lat="49.6312" lon="4.98343">
        <ele>201.53</ele>
        <time>2019-10-03T14:30:45Z</time>
      </trkpt>
      <trkpt lat="49.6314" lon="4.9835">
        <ele>202.98</ele>
        <time>2019-10-03T14:31:01Z</time>
      </trkpt>
      <trkpt lat="49.63163" lon="4.98344">
        <ele>207.78</ele>
        <time>2019-10-03T14:31:18Z</time>
      </trkpt>
      <trkpt lat="49.63177" lon="4.98349">
        <ele>207.78</ele>
        <time>2019-10-03T14:31:33Z</time>
      </trkpt>
      <trkpt lat="49.6319" lon="4.98349">
        <ele>208.26</ele>
        <time>2019-10-03T14:31:48Z</time>
      </trkpt>
      <trkpt lat="49.63202" lon="4.98353">
        <ele>206.34</ele>
        <time>2019-10-03T14:32:02Z</time>
      </trkpt>
      <trkpt lat="49.63221" lon="4.98352">
        <ele>204.42</ele>
        <time>2019-10-03T14:32:20Z</time>
      </trkpt>
      <trkpt lat="49.63244" lon="4.98354">
        <ele>203.94</ele>
        <time>2019-10-03T14:32:41Z</time>
      </trkpt>
      <trkpt lat="49.63264" lon="4.98356">
        <ele>202.49</ele>
        <time>2019-10-03T14:33:00Z</time>
      </trkpt>
      <trkpt lat="49.63284" lon="4.98356">
        <ele>202.49</ele>
        <time>2019-10-03T14:33:19Z</time>
      </trkpt>
      <trkpt lat="49.63299" lon="4.98355">
        <ele>202.49</ele>
        <time>2019-10-03T14:33:36Z</time>
      </trkpt>
      <trkpt lat="49.63315" lon="4.98356">
        <ele>201.53</ele>
        <time>2019-10-03T14:33:54Z</time>
      </trkpt>
      <trkpt lat="49.63325" lon="4.98358">
        <ele>202.49</ele>
        <time>2019-10-03T14:34:09Z</time>
      </trkpt>
      <trkpt lat="49.63338" lon="4.98357">
        <ele>200.57</ele>
        <time>2019-10-03T14:34:25Z</time>
      </trkpt>
      <trkpt lat="49.63355" lon="4.98349">
        <ele>200.09</ele>
        <time>2019-10-03T14:34:44Z</time>
      </trkpt>
      <trkpt lat="49.6337" lon="4.98336">
        <ele>199.13</ele>
        <time>2019-10-03T14:35:02Z</time>
      </trkpt>
      <trkpt lat="49.63385" lon="4.98325">
        <ele>199.13</ele>
        <time>2019-10-03T14:35:21Z</time>
      </trkpt>
      <trkpt lat="49.63398" lon="4.98311">
        <ele>198.17</ele>
        <time>2019-10-03T14:35:37Z</time>
      </trkpt>
      <trkpt lat="49.63411" lon="4.98296">
        <ele>196.73</ele>
        <time>2019-10-03T14:35:57Z</time>
      </trkpt>
      <trkpt lat="49.63424" lon="4.98279">
        <ele>195.28</ele>
        <time>2019-10-03T14:36:16Z</time>
      </trkpt>
      <trkpt lat="49.63436" lon="4.98263">
        <ele>193.84</ele>
        <time>2019-10-03T14:36:34Z</time>
      </trkpt>
      <trkpt lat="49.63449" lon="4.98245">
        <ele>190.96</ele>
        <time>2019-10-03T14:36:52Z</time>
      </trkpt>
      <trkpt lat="49.63461" lon="4.98226">
        <ele>188.08</ele>
        <time>2019-10-03T14:37:11Z</time>
      </trkpt>
      <trkpt lat="49.63464" lon="4.98219">
        <ele>187.59</ele>
        <time>2019-10-03T14:37:24Z</time>
      </trkpt>
      <trkpt lat="49.6347" lon="4.98199">
        <ele>186.15</ele>
        <time>2019-10-03T14:37:42Z</time>
      </trkpt>
      <trkpt lat="49.63476" lon="4.98176">
        <ele>183.27</ele>
        <time>2019-10-03T14:38:01Z</time>
      </trkpt>
      <trkpt lat="49.63483" lon="4.98157">
        <ele>182.31</ele>
        <time>2019-10-03T14:38:18Z</time>
      </trkpt>
      <trkpt lat="49.63492" lon="4.98131">
        <ele>180.87</ele>
        <time>2019-10-03T14:38:39Z</time>
      </trkpt>
      <trkpt lat="49.63484" lon="4.9811">
        <ele>180.38</ele>
        <time>2019-10-03T14:38:57Z</time>
      </trkpt>
      <trkpt lat="49.63473" lon="4.98091">
        <ele>177.98</ele>
        <time>2019-10-03T14:39:16Z</time>
      </trkpt>
      <trkpt lat="49.63466" lon="4.98079">
        <ele>177.02</ele>
        <time>2019-10-03T14:39:29Z</time>
      </trkpt>
      <trkpt lat="49.63453" lon="4.98056">
        <ele>176.06</ele>
        <time>2019-10-03T14:39:49Z</time>
      </trkpt>
      <trkpt lat="49.63453" lon="4.98055">
        <ele>177.02</ele>
        <time>2019-10-03T14:40:04Z</time>
      </trkpt>
      <trkpt lat="49.63453" lon="4.98055">
        <ele>177.02</ele>
        <time>2019-10-03T14:40:05Z</time>
      </trkpt>
    </trkseg>
  </trk>
</gpx>